Time,TemperatureF,DewpointF,PressureIn,WindDirection,WindDirectionDegrees,WindSpeedMPH,WindSpeedGustMPH,Humidity,HourlyPrecipIn,Conditions,Clouds,dailyrainin,SoftwareType,DateUTC
2013-01-02 00:00:00,71.9,59.0,30.07,SW,231,1.2,1.2,65,0.00,,,0.00,TxWx,2013-01-02 05:00:00,
2013-01-02 00:03:00,71.9,60.0,30.07,SSW,208,1.2,1.2,65,0.00,,,0.00,TxWx,2013-01-02 05:03:00,
2013-01-02 00:05:00,71.8,60.0,30.07,South,186,1.2,1.2,65,0.00,,,0.00,TxWx,2013-01-02 05:05:00,
2013-01-02 00:06:00,71.8,60.0,30.07,SW,231,0.6,0.6,66,0.00,,,0.00,TxWx,2013-01-02 05:06:00,
2013-01-02 00:08:00,71.7,60.0,30.07,WSW,253,0.6,1.2,66,0.00,,,0.00,TxWx,2013-01-02 05:08:00,
2013-01-02 00:11:00,71.5,60.0,30.07,WSW,253,0.6,0.6,66,0.00,,,0.00,TxWx,2013-01-02 05:11:00,
2013-01-02 00:12:00,71.4,59.0,30.07,SW,231,0.6,0.6,66,0.00,,,0.00,TxWx,2013-01-02 05:12:00,
2013-01-02 00:14:00,71.3,59.0,30.07,SW,231,0.0,0.0,67,0.00,,,0.00,TxWx,2013-01-02 05:14:00,
2013-01-02 00:16:00,71.2,59.0,30.07,WSW,253,0.6,0.6,67,0.00,,,0.00,TxWx,2013-01-02 05:16:00,
2013-01-02 00:17:00,71.1,59.0,30.07,WSW,253,0.6,0.6,67,0.00,,,0.00,TxWx,2013-01-02 05:17:00,
2013-01-02 00:19:00,71.0,60.0,30.07,WSW,253,0.0,0.6,68,0.00,,,0.00,TxWx,2013-01-02 05:19:00,
2013-01-02 00:21:00,70.9,60.0,30.07,SSW,208,0.6,0.6,68,0.00,,,0.00,TxWx,2013-01-02 05:21:00,
2013-01-02 00:22:00,70.9,60.0,30.07,SSW,208,0.6,1.2,68,0.00,,,0.00,TxWx,2013-01-02 05:22:00,
2013-01-02 00:23:00,70.8,60.0,30.07,SSW,208,0.6,1.2,68,0.00,,,0.00,TxWx,2013-01-02 05:23:00,
2013-01-02 00:26:00,70.6,60.0,30.07,WSW,253,0.6,0.6,68,0.00,,,0.00,TxWx,2013-01-02 05:26:00,
2013-01-02 00:28:00,70.6,60.0,30.06,SW,231,0.6,0.6,69,0.00,,,0.00,TxWx,2013-01-02 05:28:00,
2013-01-02 00:31:00,70.4,59.0,30.07,SW,231,0.6,0.6,69,0.00,,,0.00,TxWx,2013-01-02 05:31:00,
2013-01-02 00:33:00,70.3,59.0,30.06,WSW,253,1.9,1.9,69,0.00,,,0.00,TxWx,2013-01-02 05:33:00,
2013-01-02 00:35:00,70.2,59.0,30.06,SSW,208,0.6,1.2,69,0.00,,,0.00,TxWx,2013-01-02 05:35:00,
2013-01-02 00:36:00,70.2,59.0,30.06,SSW,208,0.6,0.6,69,0.00,,,0.00,TxWx,2013-01-02 05:36:00,
2013-01-02 00:39:00,70.1,59.0,30.06,SSW,208,1.2,1.2,69,0.00,,,0.00,TxWx,2013-01-02 05:39:00,
2013-01-02 00:41:00,70.1,59.0,30.06,SSW,208,0.6,0.6,69,0.00,,,0.00,TxWx,2013-01-02 05:41:00,
2013-01-02 00:43:00,70.1,60.0,30.06,SSW,208,0.0,0.6,70,0.00,,,0.00,TxWx,2013-01-02 05:43:00,
2013-01-02 00:44:00,70.0,60.0,30.06,SSW,208,0.0,0.6,70,0.00,,,0.00,TxWx,2013-01-02 05:44:00,
2013-01-02 00:46:00,70.1,60.0,30.06,SSW,208,1.2,1.2,71,0.00,,,0.00,TxWx,2013-01-02 05:46:00,
2013-01-02 00:50:00,70.2,61.0,30.06,SW,231,1.9,1.9,73,0.00,,,0.00,TxWx,2013-01-02 05:50:00,
2013-01-02 00:52:00,70.0,61.0,30.06,SW,231,1.9,1.9,73,0.00,,,0.00,TxWx,2013-01-02 05:52:00,
2013-01-02 00:53:00,69.9,61.0,30.06,SW,231,1.2,1.9,74,0.00,,,0.00,TxWx,2013-01-02 05:53:00,
2013-01-02 00:57:00,69.4,60.0,30.05,SW,231,1.9,1.9,74,0.00,,,0.00,TxWx,2013-01-02 05:57:00,
2013-01-02 00:58:00,69.3,61.0,30.05,SW,231,1.2,1.2,75,0.00,,,0.00,TxWx,2013-01-02 05:58:00,
2013-01-02 00:59:00,69.3,61.0,30.05,SW,231,1.2,1.2,75,0.00,,,0.00,TxWx,2013-01-02 05:59:00,
2013-01-02 01:02:00,69.1,61.0,30.05,SW,231,1.9,1.9,75,0.00,,,0.00,TxWx,2013-01-02 06:02:00,
2013-01-02 01:03:00,69.0,61.0,30.05,WSW,253,1.9,1.9,75,0.00,,,0.00,TxWx,2013-01-02 06:03:00,
2013-01-02 01:04:00,69.0,61.0,30.05,SW,231,1.2,1.2,75,0.00,,,0.00,TxWx,2013-01-02 06:04:00,
2013-01-02 01:07:00,68.8,61.0,30.05,SW,231,1.2,1.2,75,0.00,,,0.00,TxWx,2013-01-02 06:07:00,
2013-01-02 01:09:00,68.7,61.0,30.05,SW,231,0.6,1.2,75,0.00,,,0.00,TxWx,2013-01-02 06:09:00,
2013-01-02 01:10:00,68.7,61.0,30.05,WSW,253,1.2,1.2,75,0.00,,,0.00,TxWx,2013-01-02 06:10:00,
2013-01-02 01:11:00,68.6,61.0,30.05,WSW,253,1.9,1.9,75,0.00,,,0.00,TxWx,2013-01-02 06:11:00,
2013-01-02 01:14:00,68.6,61.0,30.05,SW,231,1.9,1.9,75,0.00,,,0.00,TxWx,2013-01-02 06:14:00,
2013-01-02 01:15:00,68.6,61.0,30.05,WSW,253,1.9,1.9,75,0.00,,,0.00,TxWx,2013-01-02 06:15:00,
2013-01-02 01:16:00,68.6,61.0,30.05,WSW,253,1.2,1.9,75,0.00,,,0.00,TxWx,2013-01-02 06:16:00,
2013-01-02 01:17:00,68.6,61.0,30.05,WSW,253,1.9,1.9,75,0.00,,,0.00,TxWx,2013-01-02 06:17:00,
2013-01-02 01:21:00,68.6,61.0,30.05,WSW,253,3.7,3.7,75,0.00,,,0.00,TxWx,2013-01-02 06:21:00,
2013-01-02 01:22:00,68.6,61.0,30.05,WSW,253,1.9,1.9,75,0.00,,,0.00,TxWx,2013-01-02 06:22:00,
2013-01-02 01:23:00,68.6,61.0,30.05,SW,231,1.9,2.5,75,0.00,,,0.00,TxWx,2013-01-02 06:23:00,
2013-01-02 01:26:00,68.6,61.0,30.05,WSW,253,1.9,1.9,76,0.00,,,0.00,TxWx,2013-01-02 06:26:00,
2013-01-02 01:27:00,68.6,61.0,30.05,WSW,253,1.9,1.9,76,0.00,,,0.00,TxWx,2013-01-02 06:27:00,
2013-01-02 01:28:00,68.6,61.0,30.05,WSW,253,1.2,1.2,76,0.00,,,0.00,TxWx,2013-01-02 06:28:00,
2013-01-02 01:31:00,68.4,60.0,30.05,WSW,253,1.2,1.2,76,0.00,,,0.00,TxWx,2013-01-02 06:31:00,
2013-01-02 01:32:00,68.3,60.0,30.05,WSW,253,1.9,1.9,76,0.00,,,0.00,TxWx,2013-01-02 06:32:00,
2013-01-02 01:34:00,68.3,60.0,30.05,SW,231,1.9,1.9,76,0.00,,,0.00,TxWx,2013-01-02 06:34:00,
2013-01-02 01:35:00,68.3,60.0,30.05,SW,231,1.9,2.5,76,0.00,,,0.00,TxWx,2013-01-02 06:35:00,
2013-01-02 01:37:00,68.2,60.0,30.05,WSW,253,1.2,1.2,77,0.00,,,0.00,TxWx,2013-01-02 06:37:00,
2013-01-02 01:40:00,68.0,60.0,30.05,WSW,253,1.2,1.2,77,0.00,,,0.00,TxWx,2013-01-02 06:40:00,
2013-01-02 01:42:00,67.9,60.0,30.05,WSW,253,1.2,1.2,77,0.00,,,0.00,TxWx,2013-01-02 06:42:00,
2013-01-02 01:46:00,67.5,60.0,30.05,WSW,253,2.5,2.5,77,0.00,,,0.00,TxWx,2013-01-02 06:46:00,
2013-01-02 01:47:00,67.4,60.0,30.05,SW,231,2.5,2.5,77,0.00,,,0.00,TxWx,2013-01-02 06:47:00,
2013-01-02 01:48:00,67.4,60.0,30.05,WSW,253,1.9,2.5,77,0.00,,,0.00,TxWx,2013-01-02 06:48:00,
2013-01-02 01:50:00,67.1,59.0,30.05,WSW,253,2.5,3.1,76,0.00,,,0.00,TxWx,2013-01-02 06:50:00,
2013-01-02 01:51:00,67.1,59.0,30.05,WSW,253,2.5,2.5,76,0.00,,,0.00,TxWx,2013-01-02 06:51:00,
2013-01-02 01:52:00,67.2,59.0,30.05,WSW,253,2.5,2.5,76,0.00,,,0.00,TxWx,2013-01-02 06:52:00,
2013-01-02 01:53:00,67.2,59.0,30.05,WSW,253,2.5,2.5,76,0.00,,,0.00,TxWx,2013-01-02 06:53:00,
2013-01-02 01:55:00,67.2,59.0,30.05,WSW,253,1.9,2.5,76,0.00,,,0.00,TxWx,2013-01-02 06:55:00,
2013-01-02 01:56:00,67.2,59.0,30.05,WSW,253,2.5,3.1,76,0.00,,,0.00,TxWx,2013-01-02 06:56:00,
2013-01-02 01:58:00,67.2,59.0,30.05,WSW,253,2.5,2.5,76,0.00,,,0.00,TxWx,2013-01-02 06:58:00,
2013-01-02 01:59:00,67.2,59.0,30.05,WSW,253,2.5,2.5,76,0.00,,,0.00,TxWx,2013-01-02 06:59:00,
2013-01-02 02:01:00,67.2,59.0,30.05,WSW,253,3.1,3.1,76,0.00,,,0.00,TxWx,2013-01-02 07:01:00,
2013-01-02 02:02:00,67.2,59.0,30.05,WSW,253,3.1,3.1,76,0.00,,,0.00,TxWx,2013-01-02 07:02:00,
2013-01-02 02:03:00,67.3,59.0,30.05,WSW,253,3.1,3.1,76,0.00,,,0.00,TxWx,2013-01-02 07:03:00,
2013-01-02 02:05:00,67.3,59.0,30.05,WSW,253,3.7,3.7,76,0.00,,,0.00,TxWx,2013-01-02 07:05:00,
2013-01-02 02:07:00,67.2,59.0,30.05,WSW,253,3.7,3.7,75,0.00,,,0.00,TxWx,2013-01-02 07:07:00,
2013-01-02 02:09:00,67.2,59.0,30.05,WSW,253,2.5,2.5,75,0.00,,,0.00,TxWx,2013-01-02 07:09:00,
2013-01-02 02:10:00,67.2,59.0,30.05,WSW,253,2.5,3.1,75,0.00,,,0.00,TxWx,2013-01-02 07:10:00,
2013-01-02 02:14:00,67.2,59.0,30.05,WSW,253,2.5,2.5,75,0.00,,,0.00,TxWx,2013-01-02 07:14:00,
2013-01-02 02:15:00,67.1,59.0,30.05,WSW,253,3.1,3.1,75,0.00,,,0.00,TxWx,2013-01-02 07:15:00,
2013-01-02 02:16:00,67.1,59.0,30.05,WSW,253,2.5,3.1,75,0.00,,,0.00,TxWx,2013-01-02 07:16:00,
2013-01-02 02:20:00,67.1,59.0,30.05,WSW,253,2.5,3.1,75,0.00,,,0.00,TxWx,2013-01-02 07:20:00,
2013-01-02 02:21:00,67.1,59.0,30.05,WSW,253,2.5,2.5,75,0.00,,,0.00,TxWx,2013-01-02 07:21:00,
2013-01-02 02:23:00,67.0,59.0,30.05,WSW,253,2.5,2.5,76,0.00,,,0.00,TxWx,2013-01-02 07:23:00,
2013-01-02 02:25:00,66.9,59.0,30.05,WSW,253,2.5,2.5,76,0.00,,,0.00,TxWx,2013-01-02 07:25:00,
2013-01-02 02:26:00,66.9,59.0,30.05,WSW,253,2.5,2.5,76,0.00,,,0.00,TxWx,2013-01-02 07:26:00,
2013-01-02 02:29:00,66.9,59.0,30.05,WSW,253,1.9,2.5,76,0.00,,,0.00,TxWx,2013-01-02 07:29:00,
2013-01-02 02:31:00,66.9,59.0,30.05,SW,231,2.5,2.5,76,0.00,,,0.00,TxWx,2013-01-02 07:31:00,
2013-01-02 02:33:00,66.8,59.0,30.05,SW,231,3.1,3.1,76,0.00,,,0.00,TxWx,2013-01-02 07:33:00,
2013-01-02 02:35:00,66.5,59.0,30.05,WSW,253,3.1,3.1,76,0.00,,,0.00,TxWx,2013-01-02 07:35:00,
2013-01-02 02:37:00,66.5,58.0,30.05,WSW,253,2.5,2.5,77,0.00,,,0.00,TxWx,2013-01-02 07:37:00,
2013-01-02 02:38:00,66.4,58.0,30.05,WSW,253,3.1,3.1,77,0.00,,,0.00,TxWx,2013-01-02 07:38:00,
2013-01-02 02:42:00,66.3,59.0,30.05,West,276,2.5,3.1,77,0.00,,,0.00,TxWx,2013-01-02 07:42:00,
2013-01-02 02:43:00,66.3,59.0,30.05,WSW,253,3.1,3.1,77,0.00,,,0.00,TxWx,2013-01-02 07:43:00,
2013-01-02 02:47:00,66.2,59.0,30.05,WSW,253,3.1,3.1,77,0.00,,,0.00,TxWx,2013-01-02 07:47:00,
2013-01-02 02:48:00,66.1,59.0,30.05,WSW,253,2.5,3.1,78,0.00,,,0.00,TxWx,2013-01-02 07:48:00,
2013-01-02 02:49:00,66.2,59.0,30.05,WSW,253,3.1,3.1,78,0.00,,,0.00,TxWx,2013-01-02 07:49:00,
2013-01-02 02:51:00,66.1,59.0,30.05,WSW,253,2.5,3.1,78,0.00,,,0.00,TxWx,2013-01-02 07:51:00,
2013-01-02 02:53:00,66.0,59.0,30.05,SW,231,2.5,2.5,78,0.00,,,0.00,TxWx,2013-01-02 07:53:00,
2013-01-02 02:56:00,66.0,59.0,30.05,WSW,253,3.1,3.1,78,0.00,,,0.00,TxWx,2013-01-02 07:56:00,
2013-01-02 02:57:00,66.0,59.0,30.05,SW,231,1.9,2.5,78,0.00,,,0.00,TxWx,2013-01-02 07:57:00,
2013-01-02 02:59:00,65.8,59.0,30.05,WSW,253,2.5,3.1,78,0.00,,,0.00,TxWx,2013-01-02 07:59:00,
2013-01-02 03:00:00,65.8,59.0,30.05,WSW,253,3.1,3.1,78,0.00,,,0.00,TxWx,2013-01-02 08:00:00,
2013-01-02 03:02:00,65.7,59.0,30.05,WSW,253,2.5,2.5,78,0.00,,,0.00,TxWx,2013-01-02 08:02:00,
2013-01-02 03:05:00,65.6,59.0,30.05,WSW,253,3.1,3.1,78,0.00,,,0.00,TxWx,2013-01-02 08:05:00,
2013-01-02 03:06:00,65.6,59.0,30.05,WSW,253,2.5,3.1,78,0.00,,,0.00,TxWx,2013-01-02 08:06:00,
2013-01-02 03:07:00,65.5,59.0,30.05,WSW,253,3.1,3.1,79,0.00,,,0.00,TxWx,2013-01-02 08:07:00,
2013-01-02 03:12:00,65.5,58.0,30.05,WSW,253,2.5,2.5,79,0.00,,,0.00,TxWx,2013-01-02 08:12:00,
2013-01-02 03:13:00,65.5,58.0,30.05,WSW,253,2.5,2.5,79,0.00,,,0.00,TxWx,2013-01-02 08:13:00,
2013-01-02 03:18:00,65.4,58.0,30.05,WSW,253,2.5,2.5,80,0.00,,,0.00,TxWx,2013-01-02 08:18:00,
2013-01-02 03:19:00,65.5,58.0,30.05,West,276,1.9,2.5,80,0.00,,,0.00,TxWx,2013-01-02 08:19:00,
2013-01-02 03:24:00,65.4,58.0,30.06,WSW,253,3.1,3.1,80,0.00,,,0.00,TxWx,2013-01-02 08:24:00,
2013-01-02 03:25:00,65.4,59.0,30.05,WSW,253,3.1,3.7,80,0.00,,,0.00,TxWx,2013-01-02 08:25:00,
2013-01-02 03:27:00,65.4,59.0,30.06,WSW,253,3.1,3.1,80,0.00,,,0.00,TxWx,2013-01-02 08:27:00,
2013-01-02 03:29:00,65.4,59.0,30.06,West,276,4.3,4.3,80,0.00,,,0.00,TxWx,2013-01-02 08:29:00,
2013-01-02 03:31:00,65.4,59.0,30.06,West,276,4.3,4.3,80,0.00,,,0.00,TxWx,2013-01-02 08:31:00,
2013-01-02 03:32:00,65.5,60.0,30.06,WNW,298,3.7,3.7,81,0.00,,,0.00,TxWx,2013-01-02 08:32:00,
2013-01-02 03:33:00,65.5,60.0,30.06,WNW,298,4.3,4.3,81,0.00,,,0.00,TxWx,2013-01-02 08:33:00,
2013-01-02 03:36:00,65.4,59.0,30.05,West,276,3.7,3.7,81,0.00,,,0.00,TxWx,2013-01-02 08:36:00,
2013-01-02 03:38:00,65.4,59.0,30.06,West,276,3.7,3.7,81,0.00,,,0.00,TxWx,2013-01-02 08:38:00,
2013-01-02 03:41:00,65.3,59.0,30.06,WSW,253,3.7,3.7,81,0.00,,,0.00,TxWx,2013-01-02 08:41:00,
2013-01-02 03:43:00,65.3,59.0,30.06,West,276,3.1,3.7,81,0.00,,,0.00,TxWx,2013-01-02 08:43:00,
2013-01-02 03:46:00,65.2,59.0,30.06,West,276,3.1,3.7,81,0.00,,,0.00,TxWx,2013-01-02 08:46:00,
2013-01-02 03:47:00,65.2,59.0,30.06,West,276,3.7,3.7,81,0.00,,,0.00,TxWx,2013-01-02 08:47:00,
2013-01-02 03:49:00,65.2,59.0,30.06,WNW,298,3.1,3.1,81,0.00,,,0.00,TxWx,2013-01-02 08:49:00,
2013-01-02 03:50:00,65.2,59.0,30.05,West,276,3.7,4.3,81,0.00,,,0.00,TxWx,2013-01-02 08:50:00,
2013-01-02 03:52:00,65.2,59.0,30.06,WNW,298,3.1,3.1,81,0.00,,,0.00,TxWx,2013-01-02 08:52:00,
2013-01-02 03:54:00,65.2,59.0,30.06,West,276,4.3,4.3,81,0.00,,,0.00,TxWx,2013-01-02 08:54:00,
2013-01-02 03:56:00,65.2,59.0,30.06,West,276,3.7,3.7,81,0.00,,,0.00,TxWx,2013-01-02 08:56:00,
2013-01-02 03:59:00,65.3,59.0,30.06,WNW,298,1.9,2.5,81,0.00,,,0.00,TxWx,2013-01-02 08:59:00,
2013-01-02 04:00:00,65.1,59.0,30.06,WNW,298,2.5,3.1,81,0.00,,,0.00,TxWx,2013-01-02 09:00:00,
2013-01-02 04:01:00,65.1,59.0,30.06,West,276,2.5,3.1,81,0.00,,,0.00,TxWx,2013-01-02 09:01:00,
2013-01-02 04:04:00,65.0,59.0,30.06,WNW,298,3.1,3.7,81,0.00,,,0.00,TxWx,2013-01-02 09:04:00,
2013-01-02 04:05:00,65.1,59.0,30.05,NW,321,3.1,3.1,81,0.00,,,0.00,TxWx,2013-01-02 09:05:00,
2013-01-02 04:06:00,65.1,59.0,30.05,WNW,298,2.5,2.5,81,0.00,,,0.00,TxWx,2013-01-02 09:06:00,
2013-01-02 04:09:00,65.1,59.0,30.05,West,276,2.5,2.5,81,0.00,,,0.00,TxWx,2013-01-02 09:09:00,
2013-01-02 04:11:00,65.1,59.0,30.06,West,276,1.9,2.5,81,0.00,,,0.00,TxWx,2013-01-02 09:11:00,
2013-01-02 04:12:00,65.1,59.0,30.05,West,276,1.9,1.9,81,0.00,,,0.00,TxWx,2013-01-02 09:12:00,
2013-01-02 04:17:00,65.2,59.0,30.06,West,276,2.5,2.5,81,0.00,,,0.00,TxWx,2013-01-02 09:17:00,
2013-01-02 04:18:00,65.2,59.0,30.06,West,276,1.9,2.5,81,0.00,,,0.00,TxWx,2013-01-02 09:18:00,
2013-01-02 04:19:00,65.2,59.0,30.05,WNW,298,2.5,2.5,81,0.00,,,0.00,TxWx,2013-01-02 09:19:00,
2013-01-02 04:20:00,65.3,59.0,30.05,WNW,298,1.2,1.9,81,0.00,,,0.00,TxWx,2013-01-02 09:20:00,
2013-01-02 04:23:00,65.3,59.0,30.06,West,276,1.9,1.9,81,0.00,,,0.00,TxWx,2013-01-02 09:23:00,
2013-01-02 04:24:00,65.3,59.0,30.05,West,276,2.5,3.1,81,0.00,,,0.00,TxWx,2013-01-02 09:24:00,
2013-01-02 04:25:00,65.4,59.0,30.05,West,276,3.7,3.7,81,0.00,,,0.00,TxWx,2013-01-02 09:25:00,
2013-01-02 04:27:00,65.4,59.0,30.06,West,276,2.5,2.5,81,0.00,,,0.00,TxWx,2013-01-02 09:27:00,
2013-01-02 04:29:00,65.4,59.0,30.06,WSW,253,2.5,2.5,81,0.00,,,0.00,TxWx,2013-01-02 09:29:00,
2013-01-02 04:30:00,65.5,59.0,30.06,West,276,2.5,2.5,81,0.00,,,0.00,TxWx,2013-01-02 09:30:00,
2013-01-02 04:33:00,65.4,59.0,30.06,WNW,298,2.5,2.5,81,0.00,,,0.00,TxWx,2013-01-02 09:33:00,
2013-01-02 04:35:00,65.5,59.0,30.06,WNW,298,2.5,3.1,82,0.00,,,0.00,TxWx,2013-01-02 09:35:00,
2013-01-02 04:36:00,65.5,60.0,30.06,West,276,2.5,2.5,82,0.00,,,0.00,TxWx,2013-01-02 09:36:00,
2013-01-02 04:38:00,65.4,59.0,30.06,WNW,298,3.1,3.1,82,0.00,,,0.00,TxWx,2013-01-02 09:38:00,
2013-01-02 04:40:00,65.3,59.0,30.06,NW,321,1.9,1.9,82,0.00,,,0.00,TxWx,2013-01-02 09:40:00,
2013-01-02 04:43:00,65.1,59.0,30.06,WNW,298,1.9,1.9,81,0.00,,,0.00,TxWx,2013-01-02 09:43:00,
2013-01-02 04:44:00,65.1,59.0,30.06,WNW,298,1.2,1.9,81,0.00,,,0.00,TxWx,2013-01-02 09:44:00,
2013-01-02 04:45:00,65.1,59.0,30.06,WNW,298,1.9,1.9,81,0.00,,,0.00,TxWx,2013-01-02 09:45:00,
2013-01-02 04:48:00,65.0,59.0,30.06,WNW,298,1.9,1.9,81,0.00,,,0.00,TxWx,2013-01-02 09:48:00,
2013-01-02 04:50:00,65.1,59.0,30.06,WSW,253,1.2,1.2,81,0.00,,,0.00,TxWx,2013-01-02 09:50:00,
2013-01-02 04:51:00,65.1,59.0,30.06,WSW,253,1.2,1.2,81,0.00,,,0.00,TxWx,2013-01-02 09:51:00,
2013-01-02 04:52:00,65.1,59.0,30.06,WSW,253,1.2,1.2,81,0.00,,,0.00,TxWx,2013-01-02 09:52:00,
2013-01-02 04:55:00,65.3,59.0,30.06,WSW,253,1.9,1.9,81,0.00,,,0.00,TxWx,2013-01-02 09:55:00,
2013-01-02 04:56:00,65.5,59.0,30.06,WSW,253,1.2,1.2,81,0.00,,,0.00,TxWx,2013-01-02 09:56:00,
2013-01-02 04:57:00,65.6,60.0,30.05,SW,231,1.9,1.9,81,0.00,,,0.00,TxWx,2013-01-02 09:57:00,
2013-01-02 04:58:00,65.6,60.0,30.05,WSW,253,1.9,1.9,80,0.00,,,0.00,TxWx,2013-01-02 09:58:00,
2013-01-02 05:00:00,65.9,59.0,30.06,WSW,253,1.9,1.9,80,0.00,,,0.00,TxWx,2013-01-02 10:00:00,
2013-01-02 05:02:00,66.0,59.0,30.05,WSW,253,1.9,1.9,79,0.00,,,0.00,TxWx,2013-01-02 10:02:00,
2013-01-02 05:03:00,66.0,59.0,30.05,West,276,1.9,1.9,79,0.00,,,0.00,TxWx,2013-01-02 10:03:00,
2013-01-02 05:04:00,66.0,59.0,30.05,WNW,298,1.9,1.9,79,0.00,,,0.00,TxWx,2013-01-02 10:04:00,
2013-01-02 05:07:00,66.3,59.0,30.06,WNW,298,1.9,2.5,80,0.00,,,0.00,TxWx,2013-01-02 10:07:00,
2013-01-02 05:08:00,66.3,59.0,30.06,WNW,298,1.9,1.9,80,0.00,,,0.00,TxWx,2013-01-02 10:08:00,
2013-01-02 05:09:00,66.3,59.0,30.06,WNW,298,1.9,1.9,80,0.00,,,0.00,TxWx,2013-01-02 10:09:00,
2013-01-02 05:10:00,66.3,60.0,30.06,WNW,298,1.9,1.9,80,0.00,,,0.00,TxWx,2013-01-02 10:10:00,
2013-01-02 05:12:00,66.3,60.0,30.06,WNW,298,1.2,1.9,80,0.00,,,0.00,TxWx,2013-01-02 10:12:00,
2013-01-02 05:14:00,66.1,59.0,30.06,WNW,298,1.9,1.9,80,0.00,,,0.00,TxWx,2013-01-02 10:14:00,
2013-01-02 05:17:00,66.1,60.0,30.06,WNW,298,1.2,1.9,80,0.00,,,0.00,TxWx,2013-01-02 10:17:00,
2013-01-02 05:19:00,66.2,60.0,30.06,WNW,298,1.9,1.9,81,0.00,,,0.00,TxWx,2013-01-02 10:19:00,
2013-01-02 05:20:00,66.2,60.0,30.06,West,276,1.9,1.9,81,0.00,,,0.00,TxWx,2013-01-02 10:20:00,
2013-01-02 05:21:00,66.2,60.0,30.06,WNW,298,1.9,1.9,81,0.00,,,0.00,TxWx,2013-01-02 10:21:00,
2013-01-02 05:25:00,66.5,60.0,30.06,WNW,298,2.5,2.5,82,0.00,,,0.00,TxWx,2013-01-02 10:25:00,
2013-01-02 05:26:00,66.4,60.0,30.06,WNW,298,1.9,2.5,82,0.00,,,0.00,TxWx,2013-01-02 10:26:00,
2013-01-02 05:27:00,66.5,60.0,30.06,WNW,298,1.9,1.9,82,0.00,,,0.00,TxWx,2013-01-02 10:27:00,
2013-01-02 05:30:00,66.4,60.0,30.06,WNW,298,1.9,1.9,82,0.00,,,0.00,TxWx,2013-01-02 10:30:00,
2013-01-02 05:31:00,66.3,60.0,30.06,WNW,298,1.9,1.9,82,0.00,,,0.00,TxWx,2013-01-02 10:31:00,
2013-01-02 05:32:00,66.3,60.0,30.06,West,276,1.2,1.9,82,0.00,,,0.00,TxWx,2013-01-02 10:32:00,
2013-01-02 05:33:00,66.2,60.0,30.06,West,276,1.9,1.9,82,0.00,,,0.00,TxWx,2013-01-02 10:33:00,
2013-01-02 05:36:00,65.9,60.0,30.06,WNW,298,1.9,1.9,82,0.00,,,0.00,TxWx,2013-01-02 10:36:00,
2013-01-02 05:37:00,65.9,60.0,30.06,WNW,298,1.2,1.2,82,0.00,,,0.00,TxWx,2013-01-02 10:37:00,
2013-01-02 05:39:00,65.8,60.0,30.06,West,276,1.9,1.9,82,0.00,,,0.00,TxWx,2013-01-02 10:39:00,
2013-01-02 05:40:00,66.0,60.0,30.06,WNW,298,1.9,1.9,83,0.00,,,0.00,TxWx,2013-01-02 10:40:00,
2013-01-02 05:42:00,66.1,60.0,30.06,West,276,1.9,1.9,83,0.00,,,0.00,TxWx,2013-01-02 10:42:00,
2013-01-02 05:44:00,66.0,60.0,30.06,West,276,2.5,2.5,83,0.00,,,0.00,TxWx,2013-01-02 10:44:00,
2013-01-02 05:47:00,65.9,60.0,30.06,West,276,1.2,1.9,83,0.00,,,0.00,TxWx,2013-01-02 10:47:00,
2013-01-02 05:48:00,65.9,60.0,30.06,West,276,1.9,1.9,83,0.00,,,0.00,TxWx,2013-01-02 10:48:00,
2013-01-02 05:49:00,65.8,60.0,30.06,West,276,1.2,1.9,83,0.00,,,0.00,TxWx,2013-01-02 10:49:00,
2013-01-02 05:51:00,65.9,60.0,30.06,West,276,2.5,2.5,83,0.00,,,0.00,TxWx,2013-01-02 10:51:00,
2013-01-02 05:53:00,66.0,61.0,30.06,WSW,253,1.9,1.9,83,0.00,,,0.00,TxWx,2013-01-02 10:53:00,
2013-01-02 05:55:00,65.8,61.0,30.06,WSW,253,1.2,1.9,83,0.00,,,0.00,TxWx,2013-01-02 10:55:00,
2013-01-02 05:56:00,65.6,60.0,30.06,WSW,253,1.2,1.9,83,0.00,,,0.00,TxWx,2013-01-02 10:56:00,
2013-01-02 05:57:00,65.4,59.0,30.06,WSW,253,1.9,1.9,82,0.00,,,0.00,TxWx,2013-01-02 10:57:00,
2013-01-02 06:00:00,65.5,59.0,30.06,WSW,253,1.9,1.9,82,0.00,,,0.00,TxWx,2013-01-02 11:00:00,
2013-01-02 06:01:00,65.5,59.0,30.06,WSW,253,1.9,1.9,82,0.00,,,0.00,TxWx,2013-01-02 11:01:00,
2013-01-02 06:03:00,65.3,59.0,30.06,WSW,253,1.9,2.5,82,0.00,,,0.00,TxWx,2013-01-02 11:03:00,
2013-01-02 06:05:00,65.3,59.0,30.07,WSW,253,1.9,2.5,82,0.00,,,0.00,TxWx,2013-01-02 11:05:00,
2013-01-02 06:06:00,65.2,59.0,30.07,WSW,253,2.5,2.5,82,0.00,,,0.00,TxWx,2013-01-02 11:06:00,
2013-01-02 06:11:00,65.1,59.0,30.07,WSW,253,2.5,3.1,81,0.00,,,0.00,TxWx,2013-01-02 11:11:00,
2013-01-02 06:12:00,65.1,59.0,30.07,WSW,253,2.5,2.5,81,0.00,,,0.00,TxWx,2013-01-02 11:12:00,
2013-01-02 06:17:00,65.3,59.0,30.07,SW,231,2.5,2.5,80,0.00,,,0.00,TxWx,2013-01-02 11:17:00,
2013-01-02 06:18:00,65.3,59.0,30.07,SW,231,2.5,2.5,80,0.00,,,0.00,TxWx,2013-01-02 11:18:00,
2013-01-02 06:20:00,65.3,58.0,30.07,WSW,253,2.5,2.5,80,0.00,,,0.00,TxWx,2013-01-02 11:20:00,
2013-01-02 06:23:00,65.5,58.0,30.07,SW,231,2.5,2.5,79,0.00,,,0.00,TxWx,2013-01-02 11:23:00,
2013-01-02 06:24:00,65.5,58.0,30.07,WSW,253,3.1,3.1,80,0.00,,,0.00,TxWx,2013-01-02 11:24:00,
2013-01-02 06:29:00,65.6,59.0,30.07,SW,231,2.5,2.5,79,0.00,,,0.00,TxWx,2013-01-02 11:29:00,
2013-01-02 06:30:00,65.5,59.0,30.07,WSW,253,3.1,3.1,79,0.00,,,0.00,TxWx,2013-01-02 11:30:00,
2013-01-02 06:32:00,65.6,59.0,30.07,WSW,253,3.1,3.1,79,0.00,,,0.00,TxWx,2013-01-02 11:32:00,
2013-01-02 06:35:00,65.7,59.0,30.07,SW,231,2.5,2.5,79,0.00,,,0.00,TxWx,2013-01-02 11:35:00,
2013-01-02 06:36:00,65.8,59.0,30.07,WSW,253,3.1,3.1,79,0.00,,,0.00,TxWx,2013-01-02 11:36:00,
2013-01-02 06:37:00,65.8,59.0,30.07,SW,231,2.5,3.1,79,0.00,,,0.00,TxWx,2013-01-02 11:37:00,
2013-01-02 06:41:00,65.5,58.0,30.07,WSW,253,3.1,3.1,79,0.00,,,0.00,TxWx,2013-01-02 11:41:00,
2013-01-02 06:43:00,65.5,58.0,30.07,WSW,253,2.5,2.5,79,0.00,,,0.00,TxWx,2013-01-02 11:43:00,
2013-01-02 06:45:00,65.4,58.0,30.08,WSW,253,2.5,3.1,79,0.00,,,0.00,TxWx,2013-01-02 11:45:00,
2013-01-02 06:47:00,65.3,58.0,30.07,WSW,253,2.5,2.5,79,0.00,,,0.00,TxWx,2013-01-02 11:47:00,
2013-01-02 06:48:00,65.3,58.0,30.07,WSW,253,2.5,3.1,80,0.00,,,0.00,TxWx,2013-01-02 11:48:00,
2013-01-02 06:50:00,65.4,59.0,30.08,West,276,2.5,2.5,80,0.00,,,0.00,TxWx,2013-01-02 11:50:00,
2013-01-02 06:51:00,65.3,59.0,30.08,WSW,253,1.9,2.5,80,0.00,,,0.00,TxWx,2013-01-02 11:51:00,
2013-01-02 06:53:00,65.3,59.0,30.08,WSW,253,2.5,2.5,80,0.00,,,0.00,TxWx,2013-01-02 11:53:00,
2013-01-02 06:54:00,65.1,58.0,30.08,WSW,253,1.9,2.5,80,0.00,,,0.00,TxWx,2013-01-02 11:54:00,
2013-01-02 06:57:00,65.1,59.0,30.08,WSW,253,1.9,2.5,80,0.00,,,0.00,TxWx,2013-01-02 11:57:00,
2013-01-02 06:58:00,65.1,59.0,30.08,WSW,253,2.5,2.5,80,0.00,,,0.00,TxWx,2013-01-02 11:58:00,
2013-01-02 07:00:00,65.2,59.0,30.08,West,276,1.9,1.9,81,0.00,,,0.00,TxWx,2013-01-02 12:00:00,
2013-01-02 07:02:00,65.3,59.0,30.08,West,276,2.5,2.5,82,0.00,,,0.00,TxWx,2013-01-02 12:02:00,
2013-01-02 07:03:00,65.4,59.0,30.08,West,276,2.5,2.5,82,0.00,,,0.00,TxWx,2013-01-02 12:03:00,
2013-01-02 07:04:00,65.4,59.0,30.08,West,276,1.9,2.5,82,0.00,,,0.00,TxWx,2013-01-02 12:04:00,
2013-01-02 07:07:00,65.2,59.0,30.08,West,276,2.5,2.5,82,0.00,,,0.00,TxWx,2013-01-02 12:07:00,
2013-01-02 07:08:00,65.3,59.0,30.08,West,276,2.5,2.5,82,0.00,,,0.00,TxWx,2013-01-02 12:08:00,
2013-01-02 07:10:00,65.2,59.0,30.08,WNW,298,2.5,2.5,82,0.00,,,0.00,TxWx,2013-01-02 12:10:00,
2013-01-02 07:13:00,65.2,59.0,30.08,NW,321,1.9,2.5,82,0.00,,,0.00,TxWx,2013-01-02 12:13:00,
2013-01-02 07:14:00,65.1,59.0,30.08,WNW,298,2.5,2.5,82,0.00,,,0.00,TxWx,2013-01-02 12:14:00,
2013-01-02 07:16:00,65.1,59.0,30.08,WNW,298,1.9,2.5,82,0.00,,,0.00,TxWx,2013-01-02 12:16:00,
2013-01-02 07:17:00,65.0,59.0,30.08,WNW,298,2.5,2.5,82,0.00,,,0.00,TxWx,2013-01-02 12:17:00,
2013-01-02 07:19:00,65.1,59.0,30.08,WNW,298,2.5,2.5,82,0.00,,,0.00,TxWx,2013-01-02 12:19:00,
2013-01-02 07:20:00,65.0,59.0,30.08,WNW,298,1.9,1.9,82,0.00,,,0.00,TxWx,2013-01-02 12:20:00,
2013-01-02 07:22:00,65.1,59.0,30.08,WNW,298,1.9,2.5,82,0.00,,,0.00,TxWx,2013-01-02 12:22:00,
2013-01-02 07:23:00,65.1,59.0,30.08,WNW,298,2.5,2.5,82,0.00,,,0.00,TxWx,2013-01-02 12:23:00,
2013-01-02 07:24:00,65.0,59.0,30.08,WNW,298,2.5,2.5,82,0.00,,,0.00,TxWx,2013-01-02 12:24:00,
2013-01-02 07:26:00,65.0,59.0,30.08,WNW,298,2.5,2.5,82,0.00,,,0.00,TxWx,2013-01-02 12:26:00,
2013-01-02 07:27:00,65.0,59.0,30.08,NW,321,1.9,2.5,82,0.00,,,0.00,TxWx,2013-01-02 12:27:00,
2013-01-02 07:28:00,65.1,59.0,30.08,WNW,298,1.9,2.5,82,0.00,,,0.00,TxWx,2013-01-02 12:28:00,
2013-01-02 07:31:00,65.1,59.0,30.08,NW,321,2.5,2.5,82,0.00,,,0.00,TxWx,2013-01-02 12:31:00,
2013-01-02 07:32:00,65.1,59.0,30.08,NW,321,2.5,2.5,82,0.00,,,0.00,TxWx,2013-01-02 12:32:00,
2013-01-02 07:34:00,65.1,59.0,30.08,WNW,298,2.5,2.5,82,0.00,,,0.00,TxWx,2013-01-02 12:34:00,
2013-01-02 07:36:00,65.2,59.0,30.08,WNW,298,2.5,2.5,82,0.00,,,0.00,TxWx,2013-01-02 12:36:00,
2013-01-02 07:37:00,65.2,59.0,30.08,WNW,298,2.5,3.1,82,0.00,,,0.00,TxWx,2013-01-02 12:37:00,
2013-01-02 07:42:00,65.2,59.0,30.08,WNW,298,2.5,2.5,82,0.00,,,0.00,TxWx,2013-01-02 12:42:00,
2013-01-02 07:44:00,65.2,59.0,30.08,WNW,298,3.1,3.1,82,0.00,,,0.00,TxWx,2013-01-02 12:44:00,
2013-01-02 07:48:00,65.3,59.0,30.08,West,276,2.5,2.5,81,0.00,,,0.00,TxWx,2013-01-02 12:48:00,
2013-01-02 07:49:00,65.4,59.0,30.08,WNW,298,3.1,3.1,82,0.00,,,0.00,TxWx,2013-01-02 12:49:00,
2013-01-02 07:50:00,65.4,59.0,30.08,WNW,298,2.5,2.5,82,0.00,,,0.00,TxWx,2013-01-02 12:50:00,
2013-01-02 07:51:00,65.3,59.0,30.09,NW,321,3.1,3.1,81,0.00,,,0.00,TxWx,2013-01-02 12:51:00,
2013-01-02 07:53:00,65.4,59.0,30.09,WNW,298,2.5,3.1,81,0.00,,,0.00,TxWx,2013-01-02 12:53:00,
2013-01-02 07:56:00,65.5,60.0,30.09,WNW,298,3.1,3.1,81,0.00,,,0.00,TxWx,2013-01-02 12:56:00,
2013-01-02 07:57:00,65.5,60.0,30.09,NW,321,3.1,3.1,81,0.00,,,0.00,TxWx,2013-01-02 12:57:00,
2013-01-02 07:59:00,65.6,60.0,30.09,West,276,3.1,3.1,81,0.00,,,0.00,TxWx,2013-01-02 12:59:00,
2013-01-02 08:02:00,65.8,60.0,30.09,West,276,2.5,3.1,81,0.00,,,0.00,TxWx,2013-01-02 13:02:00,
2013-01-02 08:03:00,65.8,60.0,30.09,WNW,298,2.5,3.1,81,0.00,,,0.00,TxWx,2013-01-02 13:03:00,
2013-01-02 08:05:00,65.9,60.0,30.09,WNW,298,2.5,3.1,81,0.00,,,0.00,TxWx,2013-01-02 13:05:00,
2013-01-02 08:07:00,66.0,60.0,30.09,West,276,2.5,2.5,81,0.00,,,0.00,TxWx,2013-01-02 13:07:00,
2013-01-02 08:08:00,65.9,60.0,30.09,WNW,298,2.5,3.1,81,0.00,,,0.00,TxWx,2013-01-02 13:08:00,
2013-01-02 08:09:00,66.0,60.0,30.09,WNW,298,2.5,2.5,80,0.00,,,0.00,TxWx,2013-01-02 13:09:00,
2013-01-02 08:11:00,66.0,60.0,30.09,West,276,2.5,3.1,80,0.00,,,0.00,TxWx,2013-01-02 13:11:00,
2013-01-02 08:13:00,66.1,60.0,30.09,WNW,298,2.5,2.5,80,0.00,,,0.00,TxWx,2013-01-02 13:13:00,
2013-01-02 08:14:00,66.1,60.0,30.09,WNW,298,3.1,3.1,80,0.00,,,0.00,TxWx,2013-01-02 13:14:00,
2013-01-02 08:16:00,66.2,60.0,30.09,West,276,2.5,2.5,80,0.00,,,0.00,TxWx,2013-01-02 13:16:00,
2013-01-02 08:18:00,66.3,60.0,30.09,WNW,298,2.5,2.5,80,0.00,,,0.00,TxWx,2013-01-02 13:18:00,
2013-01-02 08:20:00,66.3,60.0,30.09,West,276,1.9,2.5,80,0.00,,,0.00,TxWx,2013-01-02 13:20:00,
2013-01-02 08:21:00,66.4,60.0,30.09,NW,321,1.9,2.5,80,0.00,,,0.00,TxWx,2013-01-02 13:21:00,
2013-01-02 08:22:00,66.5,61.0,30.09,WNW,298,2.5,2.5,80,0.00,,,0.00,TxWx,2013-01-02 13:22:00,
2013-01-02 08:24:00,66.6,61.0,30.09,West,276,2.5,2.5,80,0.00,,,0.00,TxWx,2013-01-02 13:24:00,
2013-01-02 08:26:00,66.6,60.0,30.09,WNW,298,3.1,3.1,80,0.00,,,0.00,TxWx,2013-01-02 13:26:00,
2013-01-02 08:27:00,66.6,60.0,30.09,WNW,298,3.1,3.1,80,0.00,,,0.00,TxWx,2013-01-02 13:27:00,
2013-01-02 08:29:00,66.8,60.0,30.09,West,276,1.9,2.5,80,0.00,,,0.00,TxWx,2013-01-02 13:29:00,
2013-01-02 08:32:00,66.8,60.0,30.10,NW,321,3.1,3.1,79,0.00,,,0.00,TxWx,2013-01-02 13:32:00,
2013-01-02 08:33:00,66.8,60.0,30.09,West,276,3.1,3.7,79,0.00,,,0.00,TxWx,2013-01-02 13:33:00,
2013-01-02 08:35:00,66.9,60.0,30.09,WNW,298,2.5,3.1,79,0.00,,,0.00,TxWx,2013-01-02 13:35:00,
2013-01-02 08:38:00,67.1,60.0,30.09,WNW,298,2.5,3.1,79,0.00,,,0.00,TxWx,2013-01-02 13:38:00,
2013-01-02 08:40:00,67.3,60.0,30.10,NW,321,2.5,2.5,79,0.00,,,0.00,TxWx,2013-01-02 13:40:00,
2013-01-02 08:42:00,67.6,61.0,30.10,WNW,298,1.9,2.5,80,0.00,,,0.00,TxWx,2013-01-02 13:42:00,
2013-01-02 08:44:00,67.7,61.0,30.09,WNW,298,2.5,2.5,79,0.00,,,0.00,TxWx,2013-01-02 13:44:00,
2013-01-02 08:47:00,68.0,61.0,30.09,West,276,1.9,1.9,79,0.00,,,0.00,TxWx,2013-01-02 13:47:00,
2013-01-02 08:48:00,68.0,61.0,30.09,WSW,253,1.9,1.9,79,0.00,,,0.00,TxWx,2013-01-02 13:48:00,
2013-01-02 08:49:00,68.2,61.0,30.10,WSW,253,1.9,1.9,79,0.00,,,0.00,TxWx,2013-01-02 13:49:00,
2013-01-02 08:50:00,68.3,61.0,30.10,West,276,1.9,1.9,79,0.00,,,0.00,TxWx,2013-01-02 13:50:00,
2013-01-02 08:53:00,68.5,62.0,30.10,WNW,298,1.9,1.9,79,0.00,,,0.00,TxWx,2013-01-02 13:53:00,
2013-01-02 08:55:00,68.7,62.0,30.09,WNW,298,1.9,1.9,79,0.00,,,0.00,TxWx,2013-01-02 13:55:00,
2013-01-02 08:56:00,68.8,62.0,30.09,WNW,298,1.9,1.9,79,0.00,,,0.00,TxWx,2013-01-02 13:56:00,
2013-01-02 08:57:00,68.8,62.0,30.09,WNW,298,1.9,1.9,79,0.00,,,0.00,TxWx,2013-01-02 13:57:00,
2013-01-02 08:58:00,68.9,62.0,30.09,West,276,1.2,1.9,79,0.00,,,0.00,TxWx,2013-01-02 13:58:00,
2013-01-02 09:01:00,69.1,62.0,30.10,WNW,298,2.5,2.5,79,0.00,,,0.00,TxWx,2013-01-02 14:01:00,
2013-01-02 09:03:00,69.0,62.0,30.10,West,276,2.5,2.5,78,0.00,,,0.00,TxWx,2013-01-02 14:03:00,
2013-01-02 09:08:00,69.4,62.0,30.10,West,276,2.5,3.1,78,0.00,,,0.00,TxWx,2013-01-02 14:08:00,
2013-01-02 09:09:00,69.4,62.0,30.10,West,276,2.5,3.1,78,0.00,,,0.00,TxWx,2013-01-02 14:09:00,
2013-01-02 09:10:00,69.5,63.0,30.10,West,276,2.5,3.1,78,0.00,,,0.00,TxWx,2013-01-02 14:10:00,
2013-01-02 09:14:00,69.9,62.0,30.10,WNW,298,2.5,3.1,77,0.00,,,0.00,TxWx,2013-01-02 14:14:00,
2013-01-02 09:16:00,70.1,62.0,30.10,West,276,2.5,3.1,77,0.00,,,0.00,TxWx,2013-01-02 14:16:00,
2013-01-02 09:19:00,70.3,62.0,30.10,West,276,2.5,3.1,76,0.00,,,0.00,TxWx,2013-01-02 14:19:00,
2013-01-02 09:20:00,70.5,63.0,30.10,West,276,3.1,3.1,76,0.00,,,0.00,TxWx,2013-01-02 14:20:00,
2013-01-02 09:22:00,70.6,63.0,30.10,West,276,2.5,2.5,76,0.00,,,0.00,TxWx,2013-01-02 14:22:00,
2013-01-02 09:25:00,70.9,63.0,30.10,WSW,253,2.5,2.5,76,0.00,,,0.00,TxWx,2013-01-02 14:25:00,
2013-01-02 09:26:00,71.0,63.0,30.10,West,276,2.5,3.1,76,0.00,,,0.00,TxWx,2013-01-02 14:26:00,
2013-01-02 09:29:00,71.3,62.0,30.10,WSW,253,2.5,2.5,75,0.00,,,0.00,TxWx,2013-01-02 14:29:00,
2013-01-02 09:30:00,71.4,62.0,30.10,West,276,2.5,2.5,75,0.00,,,0.00,TxWx,2013-01-02 14:30:00,
2013-01-02 09:31:00,71.5,63.0,30.10,WSW,253,2.5,2.5,75,0.00,,,0.00,TxWx,2013-01-02 14:31:00,
2013-01-02 09:35:00,71.8,63.0,30.10,West,276,2.5,2.5,74,0.00,,,0.00,TxWx,2013-01-02 14:35:00,
2013-01-02 09:36:00,72.0,63.0,30.10,WSW,253,2.5,2.5,74,0.00,,,0.00,TxWx,2013-01-02 14:36:00,
2013-01-02 09:38:00,72.2,63.0,30.10,WSW,253,1.9,2.5,74,0.00,,,0.00,TxWx,2013-01-02 14:38:00,
2013-01-02 09:40:00,72.4,63.0,30.10,WSW,253,1.9,1.9,74,0.00,,,0.00,TxWx,2013-01-02 14:40:00,
2013-01-02 09:43:00,72.8,64.0,30.10,West,276,2.5,2.5,74,0.00,,,0.00,TxWx,2013-01-02 14:43:00,
2013-01-02 09:44:00,72.9,64.0,30.10,WSW,253,1.2,1.9,73,0.00,,,0.00,TxWx,2013-01-02 14:44:00,
2013-01-02 09:45:00,72.9,64.0,30.10,SW,231,1.9,1.9,73,0.00,,,0.00,TxWx,2013-01-02 14:45:00,
2013-01-02 09:48:00,73.2,64.0,30.10,SW,231,2.5,2.5,73,0.00,,,0.00,TxWx,2013-01-02 14:48:00,
2013-01-02 09:49:00,73.3,64.0,30.10,SW,231,2.5,3.1,73,0.00,,,0.00,TxWx,2013-01-02 14:49:00,
2013-01-02 09:52:00,73.8,64.0,30.10,SW,231,1.9,1.9,72,0.00,,,0.00,TxWx,2013-01-02 14:52:00,
2013-01-02 09:54:00,74.0,64.0,30.10,West,276,0.6,1.2,72,0.00,,,0.00,TxWx,2013-01-02 14:54:00,
2013-01-02 09:56:00,74.2,64.0,30.11,SW,231,2.5,2.5,72,0.00,,,0.00,TxWx,2013-01-02 14:56:00,
2013-01-02 09:57:00,74.3,64.0,30.11,WSW,253,2.5,2.5,71,0.00,,,0.00,TxWx,2013-01-02 14:57:00,
2013-01-02 09:58:00,74.3,64.0,30.10,SW,231,1.9,2.5,71,0.00,,,0.00,TxWx,2013-01-02 14:58:00,
2013-01-02 10:00:00,74.5,65.0,30.11,WSW,253,1.9,1.9,71,0.00,,,0.00,TxWx,2013-01-02 15:00:00,
2013-01-02 10:02:00,74.7,65.0,30.11,South,186,2.5,2.5,71,0.00,,,0.00,TxWx,2013-01-02 15:02:00,
2013-01-02 10:03:00,74.8,65.0,30.11,WSW,253,1.9,1.9,71,0.00,,,0.00,TxWx,2013-01-02 15:03:00,
2013-01-02 10:05:00,75.1,65.0,30.11,WSW,253,1.9,1.9,70,0.00,,,0.00,TxWx,2013-01-02 15:05:00,
2013-01-02 10:07:00,75.1,64.0,30.11,SSW,208,1.9,1.9,70,0.00,,,0.00,TxWx,2013-01-02 15:07:00,
2013-01-02 10:08:00,75.1,64.0,30.11,WSW,253,1.2,1.2,70,0.00,,,0.00,TxWx,2013-01-02 15:08:00,
2013-01-02 10:12:00,75.5,65.0,30.11,WSW,253,1.9,1.9,69,0.00,,,0.00,TxWx,2013-01-02 15:12:00,
2013-01-02 10:13:00,75.6,65.0,30.10,WSW,253,1.2,1.2,69,0.00,,,0.00,TxWx,2013-01-02 15:13:00,
2013-01-02 10:14:00,75.6,65.0,30.11,SSW,208,2.5,3.1,69,0.00,,,0.00,TxWx,2013-01-02 15:14:00,
2013-01-02 10:17:00,75.9,65.0,30.11,SSW,208,4.3,5.0,69,0.00,,,0.00,TxWx,2013-01-02 15:17:00,
2013-01-02 10:19:00,75.8,65.0,30.11,South,186,1.2,1.9,69,0.00,,,0.00,TxWx,2013-01-02 15:19:00,
2013-01-02 10:21:00,75.8,65.0,30.11,South,186,5.0,5.6,69,0.00,,,0.00,TxWx,2013-01-02 15:21:00,
2013-01-02 10:23:00,76.6,66.0,30.10,SE,141,3.1,3.1,69,0.00,,,0.00,TxWx,2013-01-02 15:23:00,
2013-01-02 10:25:00,76.3,65.0,30.10,SE,141,8.0,8.7,69,0.00,,,0.00,TxWx,2013-01-02 15:25:00,
2013-01-02 10:26:00,75.8,64.0,30.10,SE,141,4.3,5.0,67,0.00,,,0.00,TxWx,2013-01-02 15:26:00,
2013-01-02 10:28:00,76.1,64.0,30.10,South,186,4.3,5.0,68,0.00,,,0.00,TxWx,2013-01-02 15:28:00,
2013-01-02 10:30:00,76.4,65.0,30.10,SSE,163,5.0,5.0,69,0.00,,,0.00,TxWx,2013-01-02 15:30:00,
2013-01-02 10:31:00,76.6,66.0,30.10,SSE,163,4.3,4.3,69,0.00,,,0.00,TxWx,2013-01-02 15:31:00,
2013-01-02 10:34:00,75.7,64.0,30.10,SSE,163,8.7,9.3,68,0.00,,,0.00,TxWx,2013-01-02 15:34:00,
2013-01-02 10:35:00,75.5,64.0,30.10,SSE,163,8.0,8.0,68,0.00,,,0.00,TxWx,2013-01-02 15:35:00,
2013-01-02 10:37:00,75.3,64.0,30.10,SSW,208,4.3,5.0,69,0.00,,,0.00,TxWx,2013-01-02 15:37:00,
2013-01-02 10:39:00,75.8,65.0,30.10,SE,141,3.7,4.3,70,0.00,,,0.00,TxWx,2013-01-02 15:39:00,
2013-01-02 10:41:00,75.3,65.0,30.10,South,186,7.4,7.4,70,0.00,,,0.00,TxWx,2013-01-02 15:41:00,
2013-01-02 10:45:00,75.8,66.0,30.10,SSE,163,4.3,4.3,71,0.00,,,0.00,TxWx,2013-01-02 15:45:00,
2013-01-02 10:47:00,75.2,64.0,30.10,SE,141,8.7,8.7,70,0.00,,,0.00,TxWx,2013-01-02 15:47:00,
2013-01-02 10:48:00,74.9,65.0,30.10,SSE,163,9.9,9.9,70,0.00,,,0.00,TxWx,2013-01-02 15:48:00,
2013-01-02 10:50:00,74.9,65.0,30.10,SSE,163,6.2,6.8,71,0.00,,,0.00,TxWx,2013-01-02 15:50:00,
2013-01-02 10:51:00,74.6,65.0,30.10,SSE,163,9.9,9.9,71,0.00,,,0.00,TxWx,2013-01-02 15:51:00,
2013-01-02 10:53:00,74.7,65.0,30.10,ESE,118,8.0,8.0,72,0.00,,,0.00,TxWx,2013-01-02 15:53:00,
2013-01-02 10:54:00,74.7,65.0,30.10,SSE,163,6.8,6.8,72,0.00,,,0.00,TxWx,2013-01-02 15:54:00,
2013-01-02 10:55:00,74.9,65.0,30.10,ESE,118,5.6,5.6,72,0.00,,,0.00,TxWx,2013-01-02 15:55:00,
2013-01-02 10:57:00,74.7,65.0,30.10,SSE,163,6.8,6.8,72,0.00,,,0.00,TxWx,2013-01-02 15:57:00,
2013-01-02 11:00:00,75.1,65.0,30.10,SE,141,5.6,6.2,72,0.00,,,0.00,TxWx,2013-01-02 16:00:00,
2013-01-02 11:01:00,74.9,65.0,30.10,SSE,163,9.3,9.9,72,0.00,,,0.00,TxWx,2013-01-02 16:01:00,
2013-01-02 11:03:00,74.8,65.0,30.10,SSE,163,8.0,8.0,71,0.00,,,0.00,TxWx,2013-01-02 16:03:00,
2013-01-02 11:05:00,74.7,65.0,30.10,SE,141,3.7,3.7,71,0.00,,,0.00,TxWx,2013-01-02 16:05:00,
2013-01-02 11:08:00,74.5,65.0,30.10,SE,141,6.8,6.8,71,0.00,,,0.00,TxWx,2013-01-02 16:08:00,
2013-01-02 11:10:00,74.9,65.0,30.10,SE,141,6.2,6.2,71,0.00,,,0.00,TxWx,2013-01-02 16:10:00,
2013-01-02 11:14:00,75.1,65.0,30.09,SSE,163,5.0,5.0,71,0.00,,,0.00,TxWx,2013-01-02 16:14:00,
2013-01-02 11:15:00,75.2,65.0,30.09,SSE,163,3.1,3.1,71,0.00,,,0.00,TxWx,2013-01-02 16:15:00,
2013-01-02 11:17:00,74.8,65.0,30.09,SE,141,6.8,7.4,70,0.00,,,0.00,TxWx,2013-01-02 16:17:00,
2013-01-02 11:20:00,74.8,65.0,30.09,SE,141,6.8,6.8,71,0.00,,,0.00,TxWx,2013-01-02 16:20:00,
2013-01-02 11:21:00,74.8,65.0,30.09,SSE,163,8.0,9.3,71,0.00,,,0.00,TxWx,2013-01-02 16:21:00,
2013-01-02 11:23:00,74.8,65.0,30.09,SE,141,8.7,9.3,72,0.00,,,0.00,TxWx,2013-01-02 16:23:00,
2013-01-02 11:26:00,74.7,65.0,30.09,SE,141,8.7,8.7,72,0.00,,,0.00,TxWx,2013-01-02 16:26:00,
2013-01-02 11:27:00,74.6,65.0,30.09,SE,141,8.7,8.7,72,0.00,,,0.00,TxWx,2013-01-02 16:27:00,
2013-01-02 11:29:00,74.8,66.0,30.09,SE,141,6.2,6.8,73,0.00,,,0.00,TxWx,2013-01-02 16:29:00,
2013-01-02 11:31:00,74.5,65.0,30.09,SE,141,6.2,6.8,72,0.00,,,0.00,TxWx,2013-01-02 16:31:00,
2013-01-02 11:33:00,74.8,66.0,30.09,SSE,163,6.2,6.8,73,0.00,,,0.00,TxWx,2013-01-02 16:33:00,
2013-01-02 11:34:00,74.8,66.0,30.09,SSE,163,8.0,8.0,73,0.00,,,0.00,TxWx,2013-01-02 16:34:00,
2013-01-02 11:35:00,74.3,64.0,30.09,SE,141,6.8,6.8,72,0.00,,,0.00,TxWx,2013-01-02 16:35:00,
2013-01-02 11:37:00,74.4,64.0,30.08,SE,141,7.4,7.4,71,0.00,,,0.00,TxWx,2013-01-02 16:37:00,
2013-01-02 11:38:00,74.5,65.0,30.08,SSE,163,9.9,9.9,72,0.00,,,0.00,TxWx,2013-01-02 16:38:00,
2013-01-02 11:40:00,74.5,64.0,30.08,SSE,163,7.4,7.4,72,0.00,,,0.00,TxWx,2013-01-02 16:40:00,
2013-01-02 11:43:00,74.6,65.0,30.08,SSE,163,4.3,4.3,72,0.00,,,0.00,TxWx,2013-01-02 16:43:00,
2013-01-02 11:44:00,74.7,65.0,30.08,SSE,163,3.7,5.0,72,0.00,,,0.00,TxWx,2013-01-02 16:44:00,
2013-01-02 11:48:00,75.0,65.0,30.08,East,96,4.3,5.0,72,0.00,,,0.00,TxWx,2013-01-02 16:48:00,
2013-01-02 11:49:00,74.8,65.0,30.08,SSE,163,11.1,11.1,72,0.00,,,0.00,TxWx,2013-01-02 16:49:00,
2013-01-02 11:50:00,75.2,65.0,30.08,SE,141,6.8,6.8,72,0.00,,,0.00,TxWx,2013-01-02 16:50:00,
2013-01-02 11:55:00,75.6,66.0,30.07,SSE,163,6.8,8.0,71,0.00,,,0.00,TxWx,2013-01-02 16:55:00,
2013-01-02 11:56:00,75.5,65.0,30.07,SSE,163,6.2,8.7,70,0.00,,,0.00,TxWx,2013-01-02 16:56:00,
2013-01-02 11:57:00,75.2,64.0,30.07,SE,141,10.5,10.5,70,0.00,,,0.00,TxWx,2013-01-02 16:57:00,
2013-01-02 12:01:00,75.5,65.0,30.07,SE,141,8.7,8.7,70,0.00,,,0.00,TxWx,2013-01-02 17:01:00,
2013-01-02 12:03:00,75.2,64.0,30.07,SE,141,11.8,11.8,69,0.00,,,0.00,TxWx,2013-01-02 17:03:00,
2013-01-02 12:05:00,75.3,64.0,30.07,South,186,10.5,13.6,70,0.00,,,0.00,TxWx,2013-01-02 17:05:00,
2013-01-02 12:06:00,75.5,64.0,30.07,SE,141,7.4,7.4,70,0.00,,,0.00,TxWx,2013-01-02 17:06:00,
2013-01-02 12:07:00,75.5,65.0,30.07,SSE,163,9.3,9.9,70,0.00,,,0.00,TxWx,2013-01-02 17:07:00,
2013-01-02 12:09:00,75.1,64.0,30.06,SSE,163,10.5,11.1,69,0.00,,,0.00,TxWx,2013-01-02 17:09:00,
2013-01-02 12:12:00,75.3,64.0,30.06,SSE,163,9.3,9.3,69,0.00,,,0.00,TxWx,2013-01-02 17:12:00,
2013-01-02 12:13:00,75.1,64.0,30.06,SE,141,7.4,9.3,69,0.00,,,0.00,TxWx,2013-01-02 17:13:00,
2013-01-02 12:14:00,75.2,64.0,30.06,SE,141,10.5,10.5,69,0.00,,,0.00,TxWx,2013-01-02 17:14:00,
2013-01-02 12:15:00,75.1,64.0,30.06,SSE,163,8.0,9.9,69,0.00,,,0.00,TxWx,2013-01-02 17:15:00,
2013-01-02 12:18:00,75.0,63.0,30.06,SSE,163,9.9,9.9,68,0.00,,,0.00,TxWx,2013-01-02 17:18:00,
2013-01-02 12:19:00,75.4,64.0,30.06,SSE,163,5.6,7.4,68,0.00,,,0.00,TxWx,2013-01-02 17:19:00,
2013-01-02 12:20:00,75.6,65.0,30.06,SE,141,6.2,6.2,69,0.00,,,0.00,TxWx,2013-01-02 17:20:00,
2013-01-02 12:22:00,75.4,64.0,30.06,SSE,163,7.4,8.7,68,0.00,,,0.00,TxWx,2013-01-02 17:22:00,
2013-01-02 12:24:00,75.4,64.0,30.06,SE,141,6.8,8.7,69,0.00,,,0.00,TxWx,2013-01-02 17:24:00,
2013-01-02 12:27:00,75.6,65.0,30.06,SSE,163,6.8,6.8,69,0.00,,,0.00,TxWx,2013-01-02 17:27:00,
2013-01-02 12:29:00,75.4,64.0,30.05,SE,141,8.7,8.7,69,0.00,,,0.00,TxWx,2013-01-02 17:29:00,
2013-01-02 12:30:00,75.5,65.0,30.05,SE,141,5.6,5.6,69,0.00,,,0.00,TxWx,2013-01-02 17:30:00,
2013-01-02 12:32:00,75.6,65.0,30.05,SE,141,5.0,5.6,69,0.00,,,0.00,TxWx,2013-01-02 17:32:00,
2013-01-02 12:35:00,75.9,65.0,30.05,SSE,163,8.7,8.7,70,0.00,,,0.00,TxWx,2013-01-02 17:35:00,
2013-01-02 12:36:00,75.2,64.0,30.05,SSE,163,7.4,9.3,69,0.00,,,0.00,TxWx,2013-01-02 17:36:00,
2013-01-02 12:38:00,75.2,64.0,30.05,SSE,163,6.2,6.2,69,0.00,,,0.00,TxWx,2013-01-02 17:38:00,
2013-01-02 12:41:00,75.0,64.0,30.05,SE,141,5.6,5.6,69,0.00,,,0.00,TxWx,2013-01-02 17:41:00,
2013-01-02 12:43:00,75.2,65.0,30.05,SE,141,6.8,8.0,70,0.00,,,0.00,TxWx,2013-01-02 17:43:00,
2013-01-02 12:44:00,75.0,65.0,30.05,SE,141,9.9,9.9,71,0.00,,,0.00,TxWx,2013-01-02 17:44:00,
2013-01-02 12:47:00,75.3,65.0,30.05,SSE,163,6.8,7.4,71,0.00,,,0.00,TxWx,2013-01-02 17:47:00,
2013-01-02 12:49:00,75.4,65.0,30.05,South,186,4.3,5.0,72,0.00,,,0.00,TxWx,2013-01-02 17:49:00,
2013-01-02 12:50:00,75.2,65.0,30.05,South,186,6.8,6.8,71,0.00,,,0.00,TxWx,2013-01-02 17:50:00,
2013-01-02 12:51:00,75.3,65.0,30.05,SSE,163,8.0,9.3,71,0.00,,,0.00,TxWx,2013-01-02 17:51:00,
2013-01-02 12:53:00,75.6,66.0,30.05,SE,141,9.3,9.3,71,0.00,,,0.00,TxWx,2013-01-02 17:53:00,
2013-01-02 12:55:00,75.1,65.0,30.05,SSE,163,7.4,7.4,70,0.00,,,0.00,TxWx,2013-01-02 17:55:00,
2013-01-02 12:57:00,75.2,65.0,30.04,South,186,7.4,7.4,70,0.00,,,0.00,TxWx,2013-01-02 17:57:00,
2013-01-02 12:59:00,75.5,66.0,30.04,SSE,163,9.9,9.9,71,0.00,,,0.00,TxWx,2013-01-02 17:59:00,
2013-01-02 13:00:00,75.4,65.0,30.04,SE,141,6.2,6.8,70,0.00,,,0.00,TxWx,2013-01-02 18:00:00,
2013-01-02 13:03:00,75.8,66.0,30.04,WSW,253,8.0,8.0,71,0.00,,,0.00,TxWx,2013-01-02 18:03:00,
2013-01-02 13:05:00,75.7,65.0,30.04,ESE,118,8.0,9.3,70,0.00,,,0.00,TxWx,2013-01-02 18:05:00,
2013-01-02 13:08:00,75.7,65.0,30.04,South,186,1.9,2.5,69,0.00,,,0.00,TxWx,2013-01-02 18:08:00,
2013-01-02 13:09:00,75.8,65.0,30.03,South,186,1.2,1.2,69,0.00,,,0.00,TxWx,2013-01-02 18:09:00,
2013-01-02 13:11:00,75.9,65.0,30.04,SW,231,2.5,2.5,69,0.00,,,0.00,TxWx,2013-01-02 18:11:00,
2013-01-02 13:14:00,75.9,65.0,30.04,South,186,2.5,2.5,69,0.00,,,0.00,TxWx,2013-01-02 18:14:00,
2013-01-02 13:16:00,75.7,65.0,30.03,South,186,4.3,5.6,69,0.00,,,0.00,TxWx,2013-01-02 18:16:00,
2013-01-02 13:17:00,75.9,65.0,30.03,SSE,163,9.9,9.9,69,0.00,,,0.00,TxWx,2013-01-02 18:17:00,
2013-01-02 13:19:00,76.0,65.0,30.03,East,96,5.0,6.2,69,0.00,,,0.00,TxWx,2013-01-02 18:19:00,
2013-01-02 13:22:00,76.6,67.0,30.03,SE,141,1.2,1.9,71,0.00,,,0.00,TxWx,2013-01-02 18:22:00,
2013-01-02 13:23:00,76.6,67.0,30.03,SSE,163,5.0,5.0,71,0.00,,,0.00,TxWx,2013-01-02 18:23:00,
2013-01-02 13:25:00,76.6,66.0,30.03,SSE,163,5.0,5.0,70,0.00,,,0.00,TxWx,2013-01-02 18:25:00,
2013-01-02 13:29:00,76.3,65.0,30.03,SE,141,8.0,8.0,69,0.00,,,0.00,TxWx,2013-01-02 18:29:00,
2013-01-02 13:30:00,76.2,65.0,30.03,SSE,163,5.0,6.2,70,0.00,,,0.00,TxWx,2013-01-02 18:30:00,
2013-01-02 13:32:00,75.8,65.0,30.03,SSE,163,6.8,6.8,69,0.00,,,0.00,TxWx,2013-01-02 18:32:00,
2013-01-02 13:35:00,75.8,65.0,30.02,SE,141,8.7,8.7,70,0.00,,,0.00,TxWx,2013-01-02 18:35:00,
2013-01-02 13:36:00,76.0,66.0,30.02,SE,141,6.2,6.2,71,0.00,,,0.00,TxWx,2013-01-02 18:36:00,
2013-01-02 13:39:00,75.4,64.0,30.02,SSE,163,10.5,10.5,70,0.00,,,0.00,TxWx,2013-01-02 18:39:00,
2013-01-02 13:40:00,75.4,65.0,30.02,SSE,163,8.0,9.3,70,0.00,,,0.00,TxWx,2013-01-02 18:40:00,
2013-01-02 13:45:00,76.1,66.0,30.02,ESE,118,5.6,5.6,71,0.00,,,0.00,TxWx,2013-01-02 18:45:00,
2013-01-02 13:46:00,76.1,66.0,30.02,SSW,208,5.0,5.6,71,0.00,,,0.00,TxWx,2013-01-02 18:46:00,
2013-01-02 13:48:00,76.6,67.0,30.02,SE,141,6.2,6.2,71,0.00,,,0.00,TxWx,2013-01-02 18:48:00,
2013-01-02 13:51:00,75.8,65.0,30.02,SE,141,5.6,6.2,69,0.00,,,0.00,TxWx,2013-01-02 18:51:00,
2013-01-02 13:52:00,75.8,65.0,30.01,SSE,163,6.2,7.4,69,0.00,,,0.00,TxWx,2013-01-02 18:52:00,
2013-01-02 13:53:00,76.1,65.0,30.02,ESE,118,6.2,6.2,70,0.00,,,0.00,TxWx,2013-01-02 18:53:00,
2013-01-02 13:57:00,76.1,65.0,30.01,South,186,8.7,11.1,69,0.00,,,0.00,TxWx,2013-01-02 18:57:00,
2013-01-02 13:58:00,75.8,65.0,30.02,South,186,7.4,8.7,69,0.00,,,0.00,TxWx,2013-01-02 18:58:00,
2013-01-02 14:00:00,76.0,65.0,30.01,SE,141,8.0,8.0,70,0.00,,,0.00,TxWx,2013-01-02 19:00:00,
2013-01-02 14:03:00,75.9,65.0,30.01,SE,141,8.0,9.3,69,0.00,,,0.00,TxWx,2013-01-02 19:03:00,
2013-01-02 14:04:00,76.1,65.0,30.01,SE,141,5.0,5.6,69,0.00,,,0.00,TxWx,2013-01-02 19:04:00,
2013-01-02 14:06:00,75.9,65.0,30.01,SE,141,8.7,8.7,68,0.00,,,0.00,TxWx,2013-01-02 19:06:00,
2013-01-02 14:09:00,76.0,65.0,30.01,SE,141,6.8,6.8,69,0.00,,,0.00,TxWx,2013-01-02 19:09:00,
2013-01-02 14:10:00,76.1,65.0,30.01,SE,141,6.8,6.8,69,0.00,,,0.00,TxWx,2013-01-02 19:10:00,
2013-01-02 14:11:00,75.8,65.0,30.01,SE,141,8.7,11.8,69,0.00,,,0.00,TxWx,2013-01-02 19:11:00,
2013-01-02 14:12:00,75.5,64.0,30.01,SSE,163,11.1,11.8,69,0.00,,,0.00,TxWx,2013-01-02 19:12:00,
2013-01-02 14:14:00,75.8,65.0,30.01,ESE,118,6.8,9.9,69,0.00,,,0.00,TxWx,2013-01-02 19:14:00,
2013-01-02 14:18:00,75.8,65.0,30.01,South,186,6.8,6.8,69,0.00,,,0.00,TxWx,2013-01-02 19:18:00,
2013-01-02 14:19:00,75.8,65.0,30.01,SE,141,8.7,8.7,69,0.00,,,0.00,TxWx,2013-01-02 19:19:00,
2013-01-02 14:20:00,75.9,65.0,30.01,SSW,208,4.3,6.2,69,0.00,,,0.00,TxWx,2013-01-02 19:20:00,
2013-01-02 14:24:00,75.7,65.0,30.01,South,186,6.8,6.8,70,0.00,,,0.00,TxWx,2013-01-02 19:24:00,
2013-01-02 14:25:00,75.6,65.0,30.01,SE,141,6.8,7.4,70,0.00,,,0.00,TxWx,2013-01-02 19:25:00,
2013-01-02 14:27:00,75.5,65.0,30.01,SE,141,11.1,11.1,70,0.00,,,0.00,TxWx,2013-01-02 19:27:00,
2013-01-02 14:29:00,75.2,65.0,30.01,SE,141,11.8,11.8,70,0.00,,,0.00,TxWx,2013-01-02 19:29:00,
2013-01-02 14:31:00,75.7,66.0,30.01,SSE,163,6.2,6.2,71,0.00,,,0.00,TxWx,2013-01-02 19:31:00,
2013-01-02 14:32:00,75.7,66.0,30.01,SE,141,6.8,8.0,71,0.00,,,0.00,TxWx,2013-01-02 19:32:00,
2013-01-02 14:36:00,75.9,66.0,30.01,SSE,163,8.7,9.3,71,0.00,,,0.00,TxWx,2013-01-02 19:36:00,
2013-01-02 14:37:00,75.7,65.0,30.01,SE,141,9.3,9.9,70,0.00,,,0.00,TxWx,2013-01-02 19:37:00,
2013-01-02 14:38:00,75.7,65.0,30.01,SE,141,9.3,9.3,70,0.00,,,0.00,TxWx,2013-01-02 19:38:00,
2013-01-02 14:42:00,76.1,66.0,30.01,SSE,163,9.9,9.9,71,0.00,,,0.00,TxWx,2013-01-02 19:42:00,
2013-01-02 14:43:00,76.2,66.0,30.01,SSE,163,7.4,8.0,71,0.00,,,0.00,TxWx,2013-01-02 19:43:00,
2013-01-02 14:44:00,76.0,65.0,30.01,SE,141,6.8,7.4,70,0.00,,,0.00,TxWx,2013-01-02 19:44:00,
2013-01-02 14:45:00,75.9,65.0,30.01,SSE,163,7.4,9.3,70,0.00,,,0.00,TxWx,2013-01-02 19:45:00,
2013-01-02 14:48:00,76.3,65.0,30.01,SSE,163,6.8,7.4,70,0.00,,,0.00,TxWx,2013-01-02 19:48:00,
2013-01-02 14:50:00,76.2,65.0,30.01,SE,141,10.5,11.8,70,0.00,,,0.00,TxWx,2013-01-02 19:50:00,
2013-01-02 14:51:00,76.0,65.0,30.01,SSE,163,11.8,11.8,69,0.00,,,0.00,TxWx,2013-01-02 19:51:00,
2013-01-02 14:52:00,75.9,65.0,30.01,SE,141,10.5,10.5,69,0.00,,,0.00,TxWx,2013-01-02 19:52:00,
2013-01-02 14:56:00,76.0,65.0,30.01,SSE,163,11.1,11.1,70,0.00,,,0.00,TxWx,2013-01-02 19:56:00,
2013-01-02 14:58:00,76.0,65.0,30.01,SE,141,11.1,11.8,70,0.00,,,0.00,TxWx,2013-01-02 19:58:00,
2013-01-02 15:01:00,75.9,66.0,30.00,South,186,11.1,11.1,71,0.00,,,0.00,TxWx,2013-01-02 20:01:00,
2013-01-02 15:02:00,75.5,65.0,30.01,SSE,163,11.8,12.4,70,0.00,,,0.00,TxWx,2013-01-02 20:02:00,
2013-01-02 15:06:00,75.6,66.0,30.00,SE,141,9.9,9.9,71,0.00,,,0.00,TxWx,2013-01-02 20:06:00,
2013-01-02 15:07:00,75.8,66.0,30.01,SSE,163,6.2,7.4,71,0.00,,,0.00,TxWx,2013-01-02 20:07:00,
2013-01-02 15:08:00,75.7,66.0,30.00,South,186,9.9,9.9,71,0.00,,,0.00,TxWx,2013-01-02 20:08:00,
2013-01-02 15:11:00,75.7,66.0,30.00,SE,141,8.0,11.1,71,0.00,,,0.00,TxWx,2013-01-02 20:11:00,
2013-01-02 15:13:00,75.6,66.0,30.00,SSE,163,10.5,10.5,71,0.00,,,0.00,TxWx,2013-01-02 20:13:00,
2013-01-02 15:15:00,75.5,66.0,30.00,SSE,163,13.0,13.0,71,0.00,,,0.00,TxWx,2013-01-02 20:15:00,
2013-01-02 15:16:00,75.5,66.0,30.00,SSE,163,13.0,13.0,71,0.00,,,0.00,TxWx,2013-01-02 20:16:00,
2013-01-02 15:17:00,75.7,66.0,30.00,SE,141,11.8,11.8,71,0.00,,,0.00,TxWx,2013-01-02 20:17:00,
2013-01-02 15:19:00,75.7,65.0,30.00,SE,141,6.8,8.0,70,0.00,,,0.00,TxWx,2013-01-02 20:19:00,
2013-01-02 15:21:00,75.5,65.0,30.00,SE,141,11.1,13.0,70,0.00,,,0.00,TxWx,2013-01-02 20:21:00,
2013-01-02 15:22:00,76.0,66.0,30.00,SSW,208,3.7,3.7,71,0.00,,,0.00,TxWx,2013-01-02 20:22:00,
2013-01-02 15:25:00,76.0,65.0,30.00,SSE,163,8.7,8.7,70,0.00,,,0.00,TxWx,2013-01-02 20:25:00,
2013-01-02 15:27:00,75.9,65.0,30.00,SSE,163,6.2,6.8,70,0.00,,,0.00,TxWx,2013-01-02 20:27:00,
2013-01-02 15:28:00,75.9,65.0,30.00,South,186,10.5,10.5,70,0.00,,,0.00,TxWx,2013-01-02 20:28:00,
2013-01-02 15:29:00,76.0,65.0,30.00,SE,141,10.5,10.5,70,0.00,,,0.00,TxWx,2013-01-02 20:29:00,
2013-01-02 15:33:00,76.0,65.0,30.00,SSE,163,6.8,9.9,70,0.00,,,0.00,TxWx,2013-01-02 20:33:00,
2013-01-02 15:35:00,75.9,66.0,30.00,SSE,163,12.4,12.4,71,0.00,,,0.00,TxWx,2013-01-02 20:35:00,
2013-01-02 15:39:00,75.8,65.0,30.00,SE,141,8.7,8.7,70,0.00,,,0.00,TxWx,2013-01-02 20:39:00,
2013-01-02 15:40:00,75.7,65.0,30.01,SE,141,9.9,9.9,70,0.00,,,0.00,TxWx,2013-01-02 20:40:00,
2013-01-02 15:41:00,75.5,65.0,30.00,SE,141,10.5,10.5,70,0.00,,,0.00,TxWx,2013-01-02 20:41:00,
2013-01-02 15:46:00,75.8,66.0,30.00,SE,141,9.3,9.9,71,0.00,,,0.00,TxWx,2013-01-02 20:46:00,
2013-01-02 15:47:00,76.0,66.0,30.00,SE,141,6.8,6.8,71,0.00,,,0.00,TxWx,2013-01-02 20:47:00,
2013-01-02 15:48:00,75.8,66.0,30.00,SSE,163,9.3,10.5,71,0.00,,,0.00,TxWx,2013-01-02 20:48:00,
2013-01-02 15:52:00,75.5,66.0,30.00,SSE,163,9.9,11.1,71,0.00,,,0.00,TxWx,2013-01-02 20:52:00,
2013-01-02 15:53:00,75.8,66.0,30.00,SE,141,9.9,9.9,72,0.00,,,0.00,TxWx,2013-01-02 20:53:00,
2013-01-02 15:57:00,75.5,66.0,30.00,SE,141,10.5,10.5,72,0.00,,,0.00,TxWx,2013-01-02 20:57:00,
2013-01-02 15:58:00,75.6,66.0,30.00,SE,141,9.9,11.1,72,0.00,,,0.00,TxWx,2013-01-02 20:58:00,
2013-01-02 15:59:00,75.7,66.0,30.01,SE,141,8.0,9.3,73,0.00,,,0.00,TxWx,2013-01-02 20:59:00,
2013-01-02 16:03:00,75.5,66.0,30.00,SE,141,11.8,11.8,73,0.00,,,0.00,TxWx,2013-01-02 21:03:00,
2013-01-02 16:04:00,75.5,66.0,30.00,SSE,163,11.1,11.8,73,0.00,,,0.00,TxWx,2013-01-02 21:04:00,
2013-01-02 16:06:00,75.7,66.0,30.00,SSE,163,6.2,6.8,73,0.00,,,0.00,TxWx,2013-01-02 21:06:00,
2013-01-02 16:08:00,75.7,66.0,30.00,SSE,163,8.0,8.0,72,0.00,,,0.00,TxWx,2013-01-02 21:08:00,
2013-01-02 16:09:00,75.5,66.0,30.00,SE,141,9.3,11.1,72,0.00,,,0.00,TxWx,2013-01-02 21:09:00,
2013-01-02 16:11:00,75.5,66.0,30.00,SE,141,8.0,8.0,72,0.00,,,0.00,TxWx,2013-01-02 21:11:00,
2013-01-02 16:14:00,75.7,66.0,30.00,SSE,163,9.3,10.5,73,0.00,,,0.00,TxWx,2013-01-02 21:14:00,
2013-01-02 16:15:00,75.8,67.0,30.00,SSE,163,11.1,11.8,73,0.00,,,0.00,TxWx,2013-01-02 21:15:00,
2013-01-02 16:16:00,76.0,67.0,30.00,SSE,163,9.3,9.3,74,0.00,,,0.00,TxWx,2013-01-02 21:16:00,
2013-01-02 16:17:00,75.8,67.0,30.00,SE,141,8.0,8.7,73,0.00,,,0.00,TxWx,2013-01-02 21:17:00,
2013-01-02 16:21:00,75.6,67.0,30.01,SSE,163,8.0,8.7,73,0.00,,,0.00,TxWx,2013-01-02 21:21:00,
2013-01-02 16:22:00,75.7,67.0,30.01,SE,141,8.7,9.9,73,0.00,,,0.00,TxWx,2013-01-02 21:22:00,
2013-01-02 16:23:00,75.6,67.0,30.01,SSE,163,9.9,10.5,73,0.00,,,0.00,TxWx,2013-01-02 21:23:00,
2013-01-02 16:27:00,75.5,66.0,30.01,SSE,163,11.1,11.8,74,0.00,,,0.00,TxWx,2013-01-02 21:27:00,
2013-01-02 16:28:00,75.4,66.0,30.01,SE,141,8.7,8.7,73,0.00,,,0.00,TxWx,2013-01-02 21:28:00,
2013-01-02 16:29:00,75.5,67.0,30.01,SE,141,10.5,11.8,74,0.00,,,0.00,TxWx,2013-01-02 21:29:00,
2013-01-02 16:33:00,75.3,66.0,30.01,SE,141,13.0,13.0,74,0.00,,,0.00,TxWx,2013-01-02 21:33:00,
2013-01-02 16:34:00,75.1,66.0,30.01,East,96,8.0,8.0,73,0.00,,,0.00,TxWx,2013-01-02 21:34:00,
2013-01-02 16:36:00,75.3,66.0,30.01,SSE,163,9.9,11.1,73,0.00,,,0.00,TxWx,2013-01-02 21:36:00,
2013-01-02 16:38:00,75.3,66.0,30.01,SSE,163,11.1,11.1,73,0.00,,,0.00,TxWx,2013-01-02 21:38:00,
2013-01-02 16:40:00,75.7,67.0,30.01,SSE,163,11.8,11.8,73,0.00,,,0.00,TxWx,2013-01-02 21:40:00,
2013-01-02 16:43:00,75.5,66.0,30.01,South,186,5.0,7.4,73,0.00,,,0.00,TxWx,2013-01-02 21:43:00,
2013-01-02 16:45:00,75.4,66.0,30.01,SSE,163,9.3,12.4,73,0.00,,,0.00,TxWx,2013-01-02 21:45:00,
2013-01-02 16:46:00,75.4,66.0,30.01,ESE,118,3.7,4.3,73,0.00,,,0.00,TxWx,2013-01-02 21:46:00,
2013-01-02 16:50:00,75.4,66.0,30.01,ESE,118,5.6,7.4,73,0.00,,,0.00,TxWx,2013-01-02 21:50:00,
2013-01-02 16:51:00,75.5,66.0,30.01,SSE,163,4.3,4.3,73,0.00,,,0.00,TxWx,2013-01-02 21:51:00,
2013-01-02 16:52:00,75.5,66.0,30.02,SSE,163,5.0,5.0,73,0.00,,,0.00,TxWx,2013-01-02 21:52:00,
2013-01-02 16:56:00,75.8,67.0,30.01,East,96,3.7,3.7,73,0.00,,,0.00,TxWx,2013-01-02 21:56:00,
2013-01-02 16:57:00,75.7,66.0,30.02,SSE,163,5.0,5.0,73,0.00,,,0.00,TxWx,2013-01-02 21:57:00,
2013-01-02 16:58:00,75.7,66.0,30.02,South,186,2.5,3.1,73,0.00,,,0.00,TxWx,2013-01-02 21:58:00,
2013-01-02 17:01:00,75.7,67.0,30.02,SE,141,11.1,12.4,73,0.00,,,0.00,TxWx,2013-01-02 22:01:00,
2013-01-02 17:03:00,75.5,67.0,30.01,SSE,163,11.8,11.8,74,0.00,,,0.00,TxWx,2013-01-02 22:03:00,
2013-01-02 17:04:00,75.5,66.0,30.02,SE,141,5.6,5.6,74,0.00,,,0.00,TxWx,2013-01-02 22:04:00,
2013-01-02 17:06:00,75.5,66.0,30.02,South,186,11.1,11.1,74,0.00,,,0.00,TxWx,2013-01-02 22:06:00,
2013-01-02 17:07:00,75.5,67.0,30.02,SSE,163,5.6,5.6,74,0.00,,,0.00,TxWx,2013-01-02 22:07:00,
2013-01-02 17:09:00,75.1,66.0,30.02,SSE,163,4.3,5.0,73,0.00,,,0.00,TxWx,2013-01-02 22:09:00,
2013-01-02 17:10:00,75.1,66.0,30.02,South,186,5.6,7.4,73,0.00,,,0.00,TxWx,2013-01-02 22:10:00,
2013-01-02 17:11:00,75.1,66.0,30.02,SSE,163,5.6,5.6,73,0.00,,,0.00,TxWx,2013-01-02 22:11:00,
2013-01-02 17:14:00,75.3,66.0,30.02,South,186,5.0,5.0,74,0.00,,,0.00,TxWx,2013-01-02 22:14:00,
2013-01-02 17:15:00,75.2,66.0,30.02,SSE,163,8.7,8.7,74,0.00,,,0.00,TxWx,2013-01-02 22:15:00,
2013-01-02 17:16:00,75.3,66.0,30.02,SSE,163,7.4,8.7,74,0.00,,,0.00,TxWx,2013-01-02 22:16:00,
2013-01-02 17:20:00,75.4,66.0,30.02,SSE,163,8.7,8.7,74,0.00,,,0.00,TxWx,2013-01-02 22:20:00,
2013-01-02 17:21:00,75.3,66.0,30.02,SE,141,3.7,4.3,74,0.00,,,0.00,TxWx,2013-01-02 22:21:00,
2013-01-02 17:22:00,75.1,66.0,30.02,SSE,163,9.3,10.5,74,0.00,,,0.00,TxWx,2013-01-02 22:22:00,
2013-01-02 17:26:00,75.2,66.0,30.02,SSE,163,5.0,5.0,74,0.00,,,0.00,TxWx,2013-01-02 22:26:00,
2013-01-02 17:28:00,75.1,66.0,30.02,SE,141,4.3,4.3,74,0.00,,,0.00,TxWx,2013-01-02 22:28:00,
2013-01-02 17:29:00,75.1,66.0,30.02,SSE,163,4.3,6.2,74,0.00,,,0.00,TxWx,2013-01-02 22:29:00,
2013-01-02 17:32:00,75.2,66.0,30.02,South,186,6.2,7.4,74,0.00,,,0.00,TxWx,2013-01-02 22:32:00,
2013-01-02 17:34:00,75.1,66.0,30.02,SSE,163,8.0,11.1,74,0.00,,,0.00,TxWx,2013-01-02 22:34:00,
2013-01-02 17:35:00,75.2,66.0,30.02,SE,141,8.7,8.7,74,0.00,,,0.00,TxWx,2013-01-02 22:35:00,
2013-01-02 17:36:00,75.2,66.0,30.02,SE,141,7.4,7.4,74,0.00,,,0.00,TxWx,2013-01-02 22:36:00,
2013-01-02 17:38:00,75.2,66.0,30.02,South,186,7.4,8.0,75,0.00,,,0.00,TxWx,2013-01-02 22:38:00,
2013-01-02 17:40:00,75.3,67.0,30.02,SE,141,4.3,4.3,75,0.00,,,0.00,TxWx,2013-01-02 22:40:00,
2013-01-02 17:41:00,75.3,67.0,30.02,South,186,5.0,5.0,75,0.00,,,0.00,TxWx,2013-01-02 22:41:00,
2013-01-02 17:44:00,75.2,67.0,30.02,SSE,163,8.0,9.3,75,0.00,,,0.00,TxWx,2013-01-02 22:44:00,
2013-01-02 17:46:00,75.1,67.0,30.02,SE,141,10.5,11.8,75,0.00,,,0.00,TxWx,2013-01-02 22:46:00,
2013-01-02 17:47:00,75.2,67.0,30.02,SE,141,9.3,9.3,75,0.00,,,0.00,TxWx,2013-01-02 22:47:00,
2013-01-02 17:49:00,75.2,67.0,30.02,ESE,118,5.6,6.8,76,0.00,,,0.00,TxWx,2013-01-02 22:49:00,
2013-01-02 17:52:00,75.0,67.0,30.02,SE,141,5.6,6.2,75,0.00,,,0.00,TxWx,2013-01-02 22:52:00,
2013-01-02 17:55:00,75.0,67.0,30.03,SE,141,4.3,5.0,75,0.00,,,0.00,TxWx,2013-01-02 22:55:00,
2013-01-02 17:57:00,74.9,67.0,30.03,SSW,208,5.6,6.2,75,0.00,,,0.00,TxWx,2013-01-02 22:57:00,
2013-01-02 17:58:00,75.1,67.0,30.03,SE,141,5.6,8.0,76,0.00,,,0.00,TxWx,2013-01-02 22:58:00,
2013-01-02 18:00:00,75.2,67.0,30.03,SSE,163,3.1,3.1,76,0.00,,,0.00,TxWx,2013-01-02 23:00:00,
2013-01-02 18:01:00,75.4,67.0,30.03,SSE,163,3.7,4.3,76,0.00,,,0.00,TxWx,2013-01-02 23:01:00,
2013-01-02 18:02:00,75.2,67.0,30.03,SE,141,7.4,8.7,76,0.00,,,0.00,TxWx,2013-01-02 23:02:00,
2013-01-02 18:05:00,75.2,67.0,30.03,SE,141,3.7,3.7,76,0.00,,,0.00,TxWx,2013-01-02 23:05:00,
2013-01-02 18:08:00,75.0,67.0,30.03,SSE,163,6.8,8.0,76,0.00,,,0.00,TxWx,2013-01-02 23:08:00,
2013-01-02 18:10:00,75.1,67.0,30.03,SE,141,3.7,3.7,76,0.00,,,0.00,TxWx,2013-01-02 23:10:00,
2013-01-02 18:11:00,75.0,67.0,30.03,SSE,163,5.0,5.0,76,0.00,,,0.00,TxWx,2013-01-02 23:11:00,
2013-01-02 18:12:00,75.0,67.0,30.03,ESE,118,4.3,5.0,76,0.00,,,0.00,TxWx,2013-01-02 23:12:00,
2013-01-02 18:14:00,74.8,67.0,30.03,SSE,163,5.6,6.2,76,0.00,,,0.00,TxWx,2013-01-02 23:14:00,
2013-01-02 18:15:00,74.8,67.0,30.03,SE,141,3.1,3.7,76,0.00,,,0.00,TxWx,2013-01-02 23:15:00,
2013-01-02 18:16:00,74.8,67.0,30.03,SSW,208,4.3,4.3,76,0.00,,,0.00,TxWx,2013-01-02 23:16:00,
2013-01-02 18:18:00,74.8,67.0,30.03,SSE,163,3.1,3.7,76,0.00,,,0.00,TxWx,2013-01-02 23:18:00,
2013-01-02 18:19:00,74.8,67.0,30.03,South,186,4.3,4.3,76,0.00,,,0.00,TxWx,2013-01-02 23:19:00,
2013-01-02 18:21:00,74.7,67.0,30.03,South,186,5.0,5.0,76,0.00,,,0.00,TxWx,2013-01-02 23:21:00,
2013-01-02 18:23:00,74.6,67.0,30.03,South,186,2.5,3.1,76,0.00,,,0.00,TxWx,2013-01-02 23:23:00,
2013-01-02 18:24:00,74.5,66.0,30.03,SE,141,5.0,5.0,76,0.00,,,0.00,TxWx,2013-01-02 23:24:00,
2013-01-02 18:25:00,74.4,66.0,30.03,SSE,163,4.3,4.3,76,0.00,,,0.00,TxWx,2013-01-02 23:25:00,
2013-01-02 18:27:00,74.5,67.0,30.03,SSE,163,2.5,3.1,76,0.00,,,0.00,TxWx,2013-01-02 23:27:00,
2013-01-02 18:29:00,74.4,66.0,30.03,SW,231,3.7,4.3,76,0.00,,,0.00,TxWx,2013-01-02 23:29:00,
2013-01-02 18:30:00,74.4,66.0,30.03,SE,141,5.0,5.0,76,0.00,,,0.00,TxWx,2013-01-02 23:30:00,
2013-01-02 18:31:00,74.5,66.0,30.03,WSW,253,5.0,5.0,76,0.00,,,0.00,TxWx,2013-01-02 23:31:00,
2013-01-02 18:32:00,74.6,67.0,30.03,South,186,5.0,6.2,76,0.00,,,0.00,TxWx,2013-01-02 23:32:00,
2013-01-02 18:35:00,74.4,66.0,30.03,South,186,4.3,5.6,76,0.00,,,0.00,TxWx,2013-01-02 23:35:00,
2013-01-02 18:36:00,74.5,66.0,30.03,SW,231,8.0,8.0,76,0.00,,,0.00,TxWx,2013-01-02 23:36:00,
2013-01-02 18:37:00,74.5,67.0,30.04,SE,141,3.1,3.1,76,0.00,,,0.00,TxWx,2013-01-02 23:37:00,
2013-01-02 18:39:00,74.5,67.0,30.04,SE,141,9.3,9.3,75,0.00,,,0.00,TxWx,2013-01-02 23:39:00,
2013-01-02 18:41:00,74.6,67.0,30.04,SE,141,3.7,4.3,76,0.00,,,0.00,TxWx,2013-01-02 23:41:00,
2013-01-02 18:42:00,74.7,67.0,30.04,WSW,253,3.1,3.7,76,0.00,,,0.00,TxWx,2013-01-02 23:42:00,
2013-01-02 18:44:00,74.6,67.0,30.04,SSE,163,7.4,7.4,76,0.00,,,0.00,TxWx,2013-01-02 23:44:00,
2013-01-02 18:47:00,74.5,67.0,30.04,SSW,208,3.7,5.0,75,0.00,,,0.00,TxWx,2013-01-02 23:47:00,
2013-01-02 18:48:00,74.5,66.0,30.04,South,186,6.2,7.4,75,0.00,,,0.00,TxWx,2013-01-02 23:48:00,
2013-01-02 18:50:00,74.5,66.0,30.04,SSE,163,3.7,4.3,75,0.00,,,0.00,TxWx,2013-01-02 23:50:00,
2013-01-02 18:52:00,74.5,66.0,30.04,SSE,163,2.5,3.1,75,0.00,,,0.00,TxWx,2013-01-02 23:52:00,
2013-01-02 18:54:00,74.6,67.0,30.04,SSE,163,4.3,4.3,75,0.00,,,0.00,TxWx,2013-01-02 23:54:00,
2013-01-02 18:56:00,74.7,67.0,30.04,South,186,5.0,7.4,75,0.00,,,0.00,TxWx,2013-01-02 23:56:00,
2013-01-02 18:57:00,74.7,67.0,30.04,SSW,208,4.3,6.8,75,0.00,,,0.00,TxWx,2013-01-02 23:57:00,
2013-01-02 18:58:00,74.7,67.0,30.04,ESE,118,2.5,3.1,76,0.00,,,0.00,TxWx,2013-01-02 23:58:00,
2013-01-02 19:00:00,74.8,67.0,30.04,SSW,208,3.7,4.3,76,0.00,,,0.00,TxWx,2013-01-03 00:00:00,
2013-01-02 19:02:00,74.7,67.0,30.04,SSW,208,3.7,5.0,76,0.00,,,0.00,TxWx,2013-01-03 00:02:00,
2013-01-02 19:04:00,74.6,67.0,30.04,ESE,118,2.5,3.1,76,0.00,,,0.00,TxWx,2013-01-03 00:04:00,
2013-01-02 19:05:00,74.7,67.0,30.04,SE,141,5.6,5.6,76,0.00,,,0.00,TxWx,2013-01-03 00:05:00,
2013-01-02 19:08:00,74.7,67.0,30.04,SSW,208,2.5,2.5,76,0.00,,,0.00,TxWx,2013-01-03 00:08:00,
2013-01-02 19:10:00,74.6,67.0,30.04,South,186,4.3,5.0,76,0.00,,,0.00,TxWx,2013-01-03 00:10:00,
2013-01-02 19:12:00,74.5,66.0,30.04,SSE,163,3.1,3.1,76,0.00,,,0.00,TxWx,2013-01-03 00:12:00,
2013-01-02 19:13:00,74.4,66.0,30.05,South,186,2.5,2.5,76,0.00,,,0.00,TxWx,2013-01-03 00:13:00,
2013-01-02 19:15:00,74.6,67.0,30.05,SSE,163,5.6,5.6,76,0.00,,,0.00,TxWx,2013-01-03 00:15:00,
2013-01-02 19:17:00,74.5,67.0,30.05,SW,231,1.9,2.5,76,0.00,,,0.00,TxWx,2013-01-03 00:17:00,
2013-01-02 19:18:00,74.5,66.0,30.05,SSE,163,4.3,4.3,76,0.00,,,0.00,TxWx,2013-01-03 00:18:00,
2013-01-02 19:19:00,74.4,66.0,30.05,SW,231,2.5,2.5,76,0.00,,,0.00,TxWx,2013-01-03 00:19:00,
2013-01-02 19:21:00,74.4,66.0,30.05,South,186,4.3,4.3,76,0.00,,,0.00,TxWx,2013-01-03 00:21:00,
2013-01-02 19:22:00,74.3,66.0,30.05,SSE,163,4.3,6.2,76,0.00,,,0.00,TxWx,2013-01-03 00:22:00,
2013-01-02 19:23:00,74.3,66.0,30.05,South,186,3.1,3.7,76,0.00,,,0.00,TxWx,2013-01-03 00:23:00,
2013-01-02 19:24:00,74.3,66.0,30.05,SSW,208,6.2,6.8,76,0.00,,,0.00,TxWx,2013-01-03 00:24:00,
2013-01-02 19:28:00,74.2,66.0,30.05,ESE,118,4.3,4.3,76,0.00,,,0.00,TxWx,2013-01-03 00:28:00,
2013-01-02 19:29:00,74.2,66.0,30.05,SW,231,6.2,6.8,76,0.00,,,0.00,TxWx,2013-01-03 00:29:00,
2013-01-02 19:31:00,74.2,66.0,30.05,SW,231,3.7,3.7,76,0.00,,,0.00,TxWx,2013-01-03 00:31:00,
2013-01-02 19:33:00,74.2,66.0,30.05,South,186,7.4,8.7,76,0.00,,,0.00,TxWx,2013-01-03 00:33:00,
2013-01-02 19:37:00,74.3,66.0,30.06,SE,141,5.0,5.0,76,0.00,,,0.00,TxWx,2013-01-03 00:37:00,
2013-01-02 19:38:00,74.4,66.0,30.05,South,186,1.9,1.9,76,0.00,,,0.00,TxWx,2013-01-03 00:38:00,
2013-01-02 19:42:00,74.3,66.0,30.06,SSW,208,1.9,1.9,75,0.00,,,0.00,TxWx,2013-01-03 00:42:00,
2013-01-02 19:43:00,74.3,66.0,30.05,SSE,163,3.7,3.7,75,0.00,,,0.00,TxWx,2013-01-03 00:43:00,
2013-01-02 19:44:00,74.2,65.0,30.06,SSW,208,6.2,6.2,75,0.00,,,0.00,TxWx,2013-01-03 00:44:00,
2013-01-02 19:46:00,74.3,65.0,30.06,SSW,208,3.1,3.7,75,0.00,,,0.00,TxWx,2013-01-03 00:46:00,
2013-01-02 19:47:00,74.3,65.0,30.06,WSW,253,2.5,3.1,75,0.00,,,0.00,TxWx,2013-01-03 00:47:00,
2013-01-02 19:48:00,74.3,65.0,30.06,SSE,163,3.7,3.7,75,0.00,,,0.00,TxWx,2013-01-03 00:48:00,
2013-01-02 19:50:00,74.4,66.0,30.06,SSE,163,4.3,5.0,75,0.00,,,0.00,TxWx,2013-01-03 00:50:00,
2013-01-02 19:52:00,74.4,66.0,30.06,SSW,208,1.9,2.5,75,0.00,,,0.00,TxWx,2013-01-03 00:52:00,
2013-01-02 19:53:00,74.4,66.0,30.06,South,186,4.3,5.0,75,0.00,,,0.00,TxWx,2013-01-03 00:53:00,
2013-01-02 19:55:00,74.3,66.0,30.06,SE,141,2.5,3.1,75,0.00,,,0.00,TxWx,2013-01-03 00:55:00,
2013-01-02 19:56:00,74.3,65.0,30.06,SSW,208,6.8,6.8,75,0.00,,,0.00,TxWx,2013-01-03 00:56:00,
2013-01-02 19:59:00,74.3,66.0,30.06,South,186,4.3,4.3,75,0.00,,,0.00,TxWx,2013-01-03 00:59:00,
2013-01-02 20:00:00,74.3,66.0,30.06,SSW,208,1.2,1.2,75,0.00,,,0.00,TxWx,2013-01-03 01:00:00,
2013-01-02 20:01:00,74.3,66.0,30.06,South,186,3.7,4.3,75,0.00,,,0.00,TxWx,2013-01-03 01:01:00,
2013-01-02 20:05:00,74.2,66.0,30.06,SSW,208,1.2,1.2,75,0.00,,,0.00,TxWx,2013-01-03 01:05:00,
2013-01-02 20:07:00,74.2,66.0,30.06,SSW,208,1.9,1.9,75,0.00,,,0.00,TxWx,2013-01-03 01:07:00,
2013-01-02 20:09:00,74.2,66.0,30.06,SSW,208,1.2,1.2,75,0.00,,,0.00,TxWx,2013-01-03 01:09:00,
2013-01-02 20:11:00,74.1,66.0,30.06,SW,231,2.5,2.5,75,0.00,,,0.00,TxWx,2013-01-03 01:11:00,
2013-01-02 20:12:00,74.1,66.0,30.06,WSW,253,1.2,1.2,76,0.00,,,0.00,TxWx,2013-01-03 01:12:00,
2013-01-02 20:13:00,74.1,66.0,30.06,SSW,208,0.6,1.2,76,0.00,,,0.00,TxWx,2013-01-03 01:13:00,
2013-01-02 20:17:00,74.0,66.0,30.06,SSW,208,1.2,1.2,76,0.00,,,0.00,TxWx,2013-01-03 01:17:00,
2013-01-02 20:18:00,74.0,66.0,30.06,SSW,208,0.6,1.2,76,0.00,,,0.00,TxWx,2013-01-03 01:18:00,
2013-01-02 20:20:00,74.0,66.0,30.06,SSW,208,1.9,1.9,76,0.00,,,0.00,TxWx,2013-01-03 01:20:00,
2013-01-02 20:22:00,74.0,66.0,30.06,WNW,298,1.2,1.9,76,0.00,,,0.00,TxWx,2013-01-03 01:22:00,
2013-01-02 20:23:00,74.0,66.0,30.06,SW,231,1.9,2.5,76,0.00,,,0.00,TxWx,2013-01-03 01:23:00,
2013-01-02 20:24:00,74.0,66.0,30.06,South,186,1.9,1.9,76,0.00,,,0.00,TxWx,2013-01-03 01:24:00,
2013-01-02 20:26:00,73.9,66.0,30.06,SSE,163,1.9,1.9,76,0.00,,,0.00,TxWx,2013-01-03 01:26:00,
2013-01-02 20:28:00,73.9,66.0,30.06,SW,231,2.5,3.1,76,0.00,,,0.00,TxWx,2013-01-03 01:28:00,
2013-01-02 20:29:00,73.9,66.0,30.06,South,186,1.2,1.2,76,0.00,,,0.00,TxWx,2013-01-03 01:29:00,
2013-01-02 20:32:00,73.7,66.0,30.06,SW,231,1.2,1.2,76,0.00,,,0.00,TxWx,2013-01-03 01:32:00,
2013-01-02 20:34:00,73.7,66.0,30.06,WSW,253,0.0,0.6,77,0.00,,,0.00,TxWx,2013-01-03 01:34:00,
2013-01-02 20:35:00,73.7,66.0,30.06,SW,231,1.9,2.5,77,0.00,,,0.00,TxWx,2013-01-03 01:35:00,
2013-01-02 20:36:00,73.6,66.0,30.06,SSW,208,0.6,1.2,77,0.00,,,0.00,TxWx,2013-01-03 01:36:00,
2013-01-02 20:39:00,73.5,66.0,30.06,SSW,208,0.6,1.2,77,0.00,,,0.00,TxWx,2013-01-03 01:39:00,
2013-01-02 20:40:00,73.5,65.0,30.06,SSW,208,1.2,1.2,77,0.00,,,0.00,TxWx,2013-01-03 01:40:00,
2013-01-02 20:43:00,73.4,66.0,30.06,SSW,208,1.2,1.2,78,0.00,,,0.00,TxWx,2013-01-03 01:43:00,
2013-01-02 20:44:00,73.4,66.0,30.06,SSW,208,1.9,1.9,78,0.00,,,0.00,TxWx,2013-01-03 01:44:00,
2013-01-02 20:45:00,73.3,66.0,30.06,South,186,2.5,2.5,78,0.00,,,0.00,TxWx,2013-01-03 01:45:00,
2013-01-02 20:46:00,73.3,66.0,30.06,SSW,208,0.6,1.2,78,0.00,,,0.00,TxWx,2013-01-03 01:46:00,
2013-01-02 20:49:00,73.2,66.0,30.06,South,186,1.9,1.9,78,0.00,,,0.00,TxWx,2013-01-03 01:49:00,
2013-01-02 20:52:00,73.1,66.0,30.06,SSW,208,1.2,1.2,78,0.00,,,0.00,TxWx,2013-01-03 01:52:00,
2013-01-02 20:53:00,73.1,66.0,30.06,South,186,2.5,2.5,79,0.00,,,0.00,TxWx,2013-01-03 01:53:00,
2013-01-02 20:54:00,73.1,66.0,30.06,SW,231,3.1,3.1,79,0.00,,,0.00,TxWx,2013-01-03 01:54:00,
2013-01-02 20:55:00,73.1,66.0,30.06,SSW,208,1.2,1.9,79,0.00,,,0.00,TxWx,2013-01-03 01:55:00,
2013-01-02 20:57:00,73.0,66.0,30.06,SW,231,1.2,1.2,79,0.00,,,0.00,TxWx,2013-01-03 01:57:00,
2013-01-02 20:58:00,73.0,66.0,30.06,SSW,208,1.2,1.9,79,0.00,,,0.00,TxWx,2013-01-03 01:58:00,
2013-01-02 21:00:00,72.9,66.0,30.06,SSW,208,1.9,1.9,79,0.00,,,0.00,TxWx,2013-01-03 02:00:00,
2013-01-02 21:01:00,72.8,66.0,30.06,SSW,208,3.1,3.7,79,0.00,,,0.00,TxWx,2013-01-03 02:01:00,
2013-01-02 21:02:00,72.8,66.0,30.06,SSW,208,1.9,1.9,80,0.00,,,0.00,TxWx,2013-01-03 02:02:00,
2013-01-02 21:05:00,72.7,66.0,30.07,SSW,208,1.2,1.2,80,0.00,,,0.00,TxWx,2013-01-03 02:05:00,
2013-01-02 21:06:00,72.7,66.0,30.06,SSW,208,3.1,3.1,80,0.00,,,0.00,TxWx,2013-01-03 02:06:00,
2013-01-02 21:07:00,72.7,66.0,30.06,SW,231,1.9,1.9,80,0.00,,,0.00,TxWx,2013-01-03 02:07:00,
2013-01-02 21:08:00,72.7,66.0,30.06,SSE,163,1.9,2.5,80,0.00,,,0.00,TxWx,2013-01-03 02:08:00,
2013-01-02 21:10:00,72.6,66.0,30.07,South,186,1.9,1.9,80,0.00,,,0.00,TxWx,2013-01-03 02:10:00,
2013-01-02 21:12:00,72.7,66.0,30.06,South,186,2.5,2.5,80,0.00,,,0.00,TxWx,2013-01-03 02:12:00,
2013-01-02 21:14:00,72.7,66.0,30.07,South,186,1.9,1.9,80,0.00,,,0.00,TxWx,2013-01-03 02:14:00,
2013-01-02 21:15:00,72.7,66.0,30.06,South,186,0.6,1.2,80,0.00,,,0.00,TxWx,2013-01-03 02:15:00,
2013-01-02 21:17:00,72.7,67.0,30.07,South,186,2.5,2.5,81,0.00,,,0.00,TxWx,2013-01-03 02:17:00,
2013-01-02 21:18:00,72.7,67.0,30.07,SSW,208,2.5,3.1,81,0.00,,,0.00,TxWx,2013-01-03 02:18:00,
2013-01-02 21:21:00,72.7,67.0,30.07,SSW,208,1.9,1.9,81,0.00,,,0.00,TxWx,2013-01-03 02:21:00,
2013-01-02 21:22:00,72.7,67.0,30.06,ESE,118,1.2,1.2,81,0.00,,,0.00,TxWx,2013-01-03 02:22:00,
2013-01-02 21:25:00,72.7,67.0,30.07,SSW,208,1.2,1.2,81,0.00,,,0.00,TxWx,2013-01-03 02:25:00,
2013-01-02 21:27:00,72.7,67.0,30.06,SW,231,1.2,1.9,81,0.00,,,0.00,TxWx,2013-01-03 02:27:00,
2013-01-02 21:28:00,72.7,67.0,30.06,South,186,1.9,1.9,81,0.00,,,0.00,TxWx,2013-01-03 02:28:00,
2013-01-02 21:30:00,72.7,67.0,30.07,WSW,253,2.5,2.5,81,0.00,,,0.00,TxWx,2013-01-03 02:30:00,
2013-01-02 21:33:00,72.7,67.0,30.06,South,186,1.9,1.9,81,0.00,,,0.00,TxWx,2013-01-03 02:33:00,
2013-01-02 21:34:00,72.6,67.0,30.06,SSW,208,2.5,2.5,81,0.00,,,0.00,TxWx,2013-01-03 02:34:00,
2013-01-02 21:36:00,72.6,67.0,30.07,SW,231,0.6,1.2,81,0.00,,,0.00,TxWx,2013-01-03 02:36:00,
2013-01-02 21:39:00,72.5,67.0,30.07,South,186,1.9,1.9,81,0.00,,,0.00,TxWx,2013-01-03 02:39:00,
2013-01-02 21:40:00,72.5,67.0,30.07,SSW,208,1.2,1.2,81,0.00,,,0.00,TxWx,2013-01-03 02:40:00,
2013-01-02 21:41:00,72.5,66.0,30.07,SSW,208,1.9,2.5,81,0.00,,,0.00,TxWx,2013-01-03 02:41:00,
2013-01-02 21:42:00,72.5,66.0,30.07,SSW,208,1.9,1.9,81,0.00,,,0.00,TxWx,2013-01-03 02:42:00,
2013-01-02 21:44:00,72.4,66.0,30.07,SW,231,1.9,2.5,81,0.00,,,0.00,TxWx,2013-01-03 02:44:00,
2013-01-02 21:47:00,72.3,66.0,30.07,SW,231,3.7,4.3,82,0.00,,,0.00,TxWx,2013-01-03 02:47:00,
2013-01-02 21:48:00,72.4,66.0,30.07,SSW,208,2.5,2.5,82,0.00,,,0.00,TxWx,2013-01-03 02:48:00,
2013-01-02 21:49:00,72.3,66.0,30.07,SSW,208,2.5,2.5,82,0.00,,,0.00,TxWx,2013-01-03 02:49:00,
2013-01-02 21:51:00,72.3,66.0,30.07,WSW,253,2.5,2.5,82,0.00,,,0.00,TxWx,2013-01-03 02:51:00,
2013-01-02 21:52:00,72.3,66.0,30.07,SSW,208,1.9,2.5,82,0.00,,,0.00,TxWx,2013-01-03 02:52:00,
2013-01-02 21:53:00,72.3,66.0,30.07,SSE,163,2.5,3.1,82,0.00,,,0.00,TxWx,2013-01-03 02:53:00,
2013-01-02 21:54:00,72.3,66.0,30.07,SSW,208,5.0,5.0,82,0.00,,,0.00,TxWx,2013-01-03 02:54:00,
2013-01-02 21:57:00,72.2,66.0,30.07,South,186,2.5,2.5,82,0.00,,,0.00,TxWx,2013-01-03 02:57:00,
2013-01-02 21:58:00,72.2,66.0,30.07,SSE,163,1.2,1.2,82,0.00,,,0.00,TxWx,2013-01-03 02:58:00,
2013-01-02 22:00:00,72.2,66.0,30.07,SSE,163,1.9,2.5,82,0.00,,,0.00,TxWx,2013-01-03 03:00:00,
2013-01-02 22:01:00,72.3,66.0,30.07,SSW,208,1.9,1.9,82,0.00,,,0.00,TxWx,2013-01-03 03:01:00,
2013-01-02 22:04:00,72.2,66.0,30.07,SSW,208,1.9,1.9,82,0.00,,,0.00,TxWx,2013-01-03 03:04:00,
2013-01-02 22:05:00,72.1,66.0,30.07,WSW,253,1.9,2.5,82,0.00,,,0.00,TxWx,2013-01-03 03:05:00,
2013-01-02 22:06:00,72.1,66.0,30.07,SW,231,1.9,1.9,82,0.00,,,0.00,TxWx,2013-01-03 03:06:00,
2013-01-02 22:08:00,72.0,66.0,30.07,WSW,253,1.2,1.9,82,0.00,,,0.00,TxWx,2013-01-03 03:08:00,
2013-01-02 22:11:00,72.0,66.0,30.07,South,186,2.5,3.1,82,0.00,,,0.00,TxWx,2013-01-03 03:11:00,
2013-01-02 22:12:00,72.0,66.0,30.07,SSW,208,1.9,2.5,82,0.00,,,0.00,TxWx,2013-01-03 03:12:00,
2013-01-02 22:14:00,71.9,66.0,30.07,South,186,1.2,1.9,82,0.00,,,0.00,TxWx,2013-01-03 03:14:00,
2013-01-02 22:17:00,71.8,66.0,30.07,South,186,1.9,1.9,82,0.00,,,0.00,TxWx,2013-01-03 03:17:00,
2013-01-02 22:20:00,71.8,66.0,30.07,SSW,208,3.1,3.7,82,0.00,,,0.00,TxWx,2013-01-03 03:20:00,
2013-01-02 22:22:00,71.7,66.0,30.07,WSW,253,1.2,1.9,82,0.00,,,0.00,TxWx,2013-01-03 03:22:00,
2013-01-02 22:23:00,71.7,66.0,30.07,SW,231,1.2,1.2,82,0.00,,,0.00,TxWx,2013-01-03 03:23:00,
2013-01-02 22:24:00,71.7,66.0,30.07,SW,231,1.9,1.9,82,0.00,,,0.00,TxWx,2013-01-03 03:24:00,
2013-01-02 22:27:00,71.7,66.0,30.07,SSW,208,2.5,2.5,82,0.00,,,0.00,TxWx,2013-01-03 03:27:00,
2013-01-02 22:28:00,71.7,66.0,30.07,SW,231,0.6,1.2,82,0.00,,,0.00,TxWx,2013-01-03 03:28:00,
2013-01-02 22:32:00,71.6,66.0,30.07,SSW,208,1.2,1.9,82,0.00,,,0.00,TxWx,2013-01-03 03:32:00,
2013-01-02 22:33:00,71.6,66.0,30.07,SSW,208,1.9,1.9,82,0.00,,,0.00,TxWx,2013-01-03 03:33:00,
2013-01-02 22:38:00,71.5,66.0,30.07,SW,231,1.9,1.9,82,0.00,,,0.00,TxWx,2013-01-03 03:38:00,
2013-01-02 22:40:00,71.5,66.0,30.07,SW,231,1.9,1.9,82,0.00,,,0.00,TxWx,2013-01-03 03:40:00,
2013-01-02 22:44:00,71.5,66.0,30.07,SSW,208,1.9,2.5,82,0.00,,,0.00,TxWx,2013-01-03 03:44:00,
2013-01-02 22:47:00,71.5,66.0,30.07,SW,231,1.9,2.5,82,0.00,,,0.00,TxWx,2013-01-03 03:47:00,
2013-01-02 22:49:00,71.5,66.0,30.07,SW,231,1.2,1.2,82,0.00,,,0.00,TxWx,2013-01-03 03:49:00,
2013-01-02 22:50:00,71.5,66.0,30.07,SW,231,1.2,1.9,82,0.00,,,0.00,TxWx,2013-01-03 03:50:00,
2013-01-02 22:51:00,71.6,66.0,30.07,WSW,253,1.9,1.9,82,0.00,,,0.00,TxWx,2013-01-03 03:51:00,
2013-01-02 22:52:00,71.6,66.0,30.07,WSW,253,0.6,1.2,82,0.00,,,0.00,TxWx,2013-01-03 03:52:00,
2013-01-02 22:54:00,71.6,66.0,30.07,SW,231,1.9,1.9,83,0.00,,,0.00,TxWx,2013-01-03 03:54:00,
2013-01-02 22:56:00,71.5,66.0,30.07,SW,231,1.2,1.2,83,0.00,,,0.00,TxWx,2013-01-03 03:56:00,
2013-01-02 22:57:00,71.6,66.0,30.07,WSW,253,3.1,3.1,83,0.00,,,0.00,TxWx,2013-01-03 03:57:00,
2013-01-02 23:01:00,71.5,66.0,30.07,SW,231,1.9,1.9,83,0.00,,,0.00,TxWx,2013-01-03 04:01:00,
2013-01-02 23:03:00,71.5,66.0,30.07,SW,231,1.2,1.2,83,0.00,,,0.00,TxWx,2013-01-03 04:03:00,
2013-01-02 23:06:00,71.4,65.0,30.07,WSW,253,3.1,3.1,83,0.00,,,0.00,TxWx,2013-01-03 04:06:00,
2013-01-02 23:09:00,71.4,65.0,30.07,WSW,253,2.5,2.5,83,0.00,,,0.00,TxWx,2013-01-03 04:09:00,
2013-01-02 23:10:00,71.4,65.0,30.07,WSW,253,2.5,2.5,83,0.00,,,0.00,TxWx,2013-01-03 04:10:00,
2013-01-02 23:11:00,71.4,65.0,30.07,WSW,253,1.9,1.9,83,0.00,,,0.00,TxWx,2013-01-03 04:11:00,
2013-01-02 23:13:00,71.4,65.0,30.07,WNW,298,1.9,1.9,83,0.00,,,0.00,TxWx,2013-01-03 04:13:00,
2013-01-02 23:15:00,71.4,66.0,30.07,West,276,1.9,1.9,83,0.00,,,0.00,TxWx,2013-01-03 04:15:00,
2013-01-02 23:16:00,71.4,66.0,30.07,West,276,1.9,1.9,83,0.00,,,0.00,TxWx,2013-01-03 04:16:00,
2013-01-02 23:17:00,71.4,66.0,30.07,West,276,0.6,1.2,83,0.00,,,0.00,TxWx,2013-01-03 04:17:00,
2013-01-02 23:20:00,71.3,65.0,30.07,West,276,1.2,1.2,83,0.00,,,0.00,TxWx,2013-01-03 04:20:00,
2013-01-02 23:22:00,71.3,65.0,30.07,West,276,1.2,1.9,83,0.00,,,0.00,TxWx,2013-01-03 04:22:00,
2013-01-02 23:24:00,71.4,66.0,30.07,SW,231,1.2,1.9,83,0.00,,,0.00,TxWx,2013-01-03 04:24:00,
2013-01-02 23:25:00,71.4,65.0,30.07,WSW,253,0.6,1.2,83,0.00,,,0.00,TxWx,2013-01-03 04:25:00,
2013-01-02 23:26:00,71.4,65.0,30.07,WSW,253,1.2,1.9,83,0.00,,,0.00,TxWx,2013-01-03 04:26:00,
2013-01-02 23:27:00,71.3,65.0,30.07,WSW,253,2.5,2.5,83,0.00,,,0.00,TxWx,2013-01-03 04:27:00,
2013-01-02 23:29:00,71.4,65.0,30.07,WSW,253,0.6,0.6,83,0.00,,,0.00,TxWx,2013-01-03 04:29:00,
2013-01-02 23:30:00,71.3,65.0,30.07,WSW,253,1.2,1.2,83,0.00,,,0.00,TxWx,2013-01-03 04:30:00,
2013-01-02 23:33:00,71.3,65.0,30.07,WSW,253,1.2,1.2,83,0.00,,,0.00,TxWx,2013-01-03 04:33:00,
2013-01-02 23:35:00,71.3,65.0,30.07,WSW,253,1.2,1.2,83,0.00,,,0.00,TxWx,2013-01-03 04:35:00,
2013-01-02 23:36:00,71.3,65.0,30.07,WSW,253,1.2,1.9,83,0.00,,,0.00,TxWx,2013-01-03 04:36:00,
2013-01-02 23:37:00,71.3,65.0,30.07,WSW,253,1.2,1.9,83,0.00,,,0.00,TxWx,2013-01-03 04:37:00,
2013-01-02 23:39:00,71.3,65.0,30.07,WSW,253,1.2,1.2,83,0.00,,,0.00,TxWx,2013-01-03 04:39:00,
2013-01-02 23:41:00,71.3,65.0,30.07,SW,231,1.9,1.9,83,0.00,,,0.00,TxWx,2013-01-03 04:41:00,
2013-01-02 23:42:00,71.3,65.0,30.07,WSW,253,1.2,1.2,83,0.00,,,0.00,TxWx,2013-01-03 04:42:00,
2013-01-02 23:43:00,71.3,65.0,30.07,WSW,253,1.2,1.9,83,0.00,,,0.00,TxWx,2013-01-03 04:43:00,
2013-01-02 23:44:00,71.3,65.0,30.07,WSW,253,1.2,1.2,83,0.00,,,0.00,TxWx,2013-01-03 04:44:00,
2013-01-02 23:48:00,71.2,65.0,30.07,WSW,253,1.2,1.2,83,0.00,,,0.00,TxWx,2013-01-03 04:48:00,
2013-01-02 23:49:00,71.2,65.0,30.07,WSW,253,1.2,1.2,83,0.00,,,0.00,TxWx,2013-01-03 04:49:00,
2013-01-02 23:50:00,71.2,65.0,30.07,SW,231,1.9,1.9,83,0.00,,,0.00,TxWx,2013-01-03 04:50:00,
2013-01-02 23:54:00,71.3,66.0,30.07,SW,231,0.6,0.6,83,0.00,,,0.00,TxWx,2013-01-03 04:54:00,
2013-01-02 23:55:00,71.2,66.0,30.07,SW,231,1.9,2.5,83,0.00,,,0.00,TxWx,2013-01-03 04:55:00,
2013-01-02 23:56:00,71.2,66.0,30.07,SW,231,1.2,1.2,83,0.00,,,0.00,TxWx,2013-01-03 04:56:00,
2013-01-02 23:59:00,71.2,66.0,30.07,SW,231,1.2,1.2,83,0.00,,,0.00,TxWx,2013-01-03 04:59:00,